<?xml version="1.0" encoding="UTF-8" standalone="no" ?>
<gpx xmlns="http://www.topografix.com/GPX/1/1" xmlns:xsi="http://www.w3.org/2001/XMLSchema-instance" xsi:schemaLocation="http://www.topografix.com/GPX/1/1 http://www.topografix.com/GPX/1/1/gpx.xsd" version="1.1" creator="VisuGPX - https://www.visugpx.com">
  <metadata>
    <name>Givors-Andancette-55-30</name>
    <desc><![CDATA[Via Rhona - Etape 1 : Givors - Andancette - 55 km - Dénivelé : 30 m]]></desc>
  </metadata>
  <trk>
    <name><![CDATA[Givors-Andancette]]></name>
    <extensions>
      <line xmlns="http://www.topografix.com/GPX/gpx_style/0/2">
        <color>ff0000</color>
        <opacity>1.0</opacity>
        <width>2.0</width>
      </line>
    </extensions>
    <trkseg>
      <trkpt lat="45.58076" lon="4.77874">
        <ele>162</ele>
        <time>2017-07-25T12:48:39Z</time>
      </trkpt>
      <trkpt lat="45.58058" lon="4.77894">
        <ele>159</ele>
      </trkpt>
      <trkpt lat="45.58017" lon="4.77982">
        <ele>160</ele>
      </trkpt>
      <trkpt lat="45.57964" lon="4.78137">
        <ele>162</ele>
        <time>2017-07-25T12:48:41Z</time>
      </trkpt>
      <trkpt lat="45.57851" lon="4.7848">
        <ele>160</ele>
        <time>2017-07-25T12:51:26Z</time>
      </trkpt>
      <trkpt lat="45.57825" lon="4.78567">
        <ele>160</ele>
      </trkpt>
      <trkpt lat="45.57804" lon="4.78635">
        <ele>159</ele>
      </trkpt>
      <trkpt lat="45.57768" lon="4.78713">
        <ele>157</ele>
      </trkpt>
      <trkpt lat="45.57753" lon="4.78746">
        <ele>156</ele>
      </trkpt>
      <trkpt lat="45.57722" lon="4.78791">
        <ele>160</ele>
        <time>2017-07-25T12:51:27Z</time>
      </trkpt>
      <trkpt lat="45.57692" lon="4.78834">
        <ele>160</ele>
        <time>2017-07-25T12:51:35Z</time>
      </trkpt>
      <trkpt lat="45.57661" lon="4.78882">
        <ele>160</ele>
        <time>2017-07-25T12:51:42Z</time>
      </trkpt>
      <trkpt lat="45.57622" lon="4.78939">
        <ele>160</ele>
        <time>2017-07-25T12:51:50Z</time>
      </trkpt>
      <trkpt lat="45.57582" lon="4.7899">
        <ele>160</ele>
        <time>2017-07-25T12:51:58Z</time>
      </trkpt>
      <trkpt lat="45.57552" lon="4.79026">
        <ele>160</ele>
        <time>2017-07-25T12:52:05Z</time>
      </trkpt>
      <trkpt lat="45.57522" lon="4.79064">
        <ele>160</ele>
        <time>2017-07-25T12:52:12Z</time>
      </trkpt>
      <trkpt lat="45.57489" lon="4.79104">
        <ele>160</ele>
        <time>2017-07-25T12:52:19Z</time>
      </trkpt>
      <trkpt lat="45.57465" lon="4.79134">
        <ele>160</ele>
        <time>2017-07-25T12:52:24Z</time>
      </trkpt>
      <trkpt lat="45.57432" lon="4.79174">
        <ele>160</ele>
        <time>2017-07-25T12:52:31Z</time>
      </trkpt>
      <trkpt lat="45.57398" lon="4.79214">
        <ele>160</ele>
        <time>2017-07-25T12:52:38Z</time>
      </trkpt>
      <trkpt lat="45.57365" lon="4.79254">
        <ele>160</ele>
        <time>2017-07-25T12:52:45Z</time>
      </trkpt>
      <trkpt lat="45.5736" lon="4.7926">
        <ele>160</ele>
        <time>2017-07-25T12:52:46Z</time>
      </trkpt>
      <trkpt lat="45.57356" lon="4.79265">
        <ele>161</ele>
        <time>2017-07-25T12:52:47Z</time>
      </trkpt>
      <trkpt lat="45.57351" lon="4.79271">
        <ele>161</ele>
        <time>2017-07-25T12:52:48Z</time>
      </trkpt>
      <trkpt lat="45.57347" lon="4.79276">
        <ele>162</ele>
        <time>2017-07-25T12:52:49Z</time>
      </trkpt>
      <trkpt lat="45.57338" lon="4.79287">
        <ele>162</ele>
        <time>2017-07-25T12:52:51Z</time>
      </trkpt>
      <trkpt lat="45.57298" lon="4.79335">
        <ele>162</ele>
        <time>2017-07-25T12:53:00Z</time>
      </trkpt>
      <trkpt lat="45.57274" lon="4.7936">
        <ele>162</ele>
        <time>2017-07-25T12:53:06Z</time>
      </trkpt>
      <trkpt lat="45.57261" lon="4.79376">
        <ele>162</ele>
        <time>2017-07-25T12:53:11Z</time>
      </trkpt>
      <trkpt lat="45.57248" lon="4.79393">
        <ele>162</ele>
        <time>2017-07-25T12:53:15Z</time>
      </trkpt>
      <trkpt lat="45.57244" lon="4.79397">
        <ele>163</ele>
        <time>2017-07-25T12:53:16Z</time>
      </trkpt>
      <trkpt lat="45.57241" lon="4.79401">
        <ele>163</ele>
        <time>2017-07-25T12:53:17Z</time>
      </trkpt>
      <trkpt lat="45.57237" lon="4.79406">
        <ele>164</ele>
        <time>2017-07-25T12:53:18Z</time>
      </trkpt>
      <trkpt lat="45.57226" lon="4.79419">
        <ele>164</ele>
        <time>2017-07-25T12:53:21Z</time>
      </trkpt>
      <trkpt lat="45.57217" lon="4.79423">
        <ele>164</ele>
        <time>2017-07-25T12:53:23Z</time>
      </trkpt>
      <trkpt lat="45.57214" lon="4.79421">
        <ele>164</ele>
        <time>2017-07-25T12:53:24Z</time>
      </trkpt>
      <trkpt lat="45.57211" lon="4.79417">
        <ele>165</ele>
        <time>2017-07-25T12:53:25Z</time>
      </trkpt>
      <trkpt lat="45.57209" lon="4.79412">
        <ele>165</ele>
        <time>2017-07-25T12:53:26Z</time>
      </trkpt>
      <trkpt lat="45.57207" lon="4.79407">
        <ele>165</ele>
        <time>2017-07-25T12:53:27Z</time>
      </trkpt>
      <trkpt lat="45.57205" lon="4.79403">
        <ele>166</ele>
        <time>2017-07-25T12:53:28Z</time>
      </trkpt>
      <trkpt lat="45.57199" lon="4.79388">
        <ele>166</ele>
        <time>2017-07-25T12:53:32Z</time>
      </trkpt>
      <trkpt lat="45.57191" lon="4.79366">
        <ele>165</ele>
      </trkpt>
      <trkpt lat="45.57178" lon="4.7935">
        <ele>170</ele>
        <time>2017-07-25T12:53:50Z</time>
      </trkpt>
      <trkpt lat="45.57165" lon="4.79342">
        <ele>170</ele>
        <time>2017-07-25T12:53:54Z</time>
      </trkpt>
      <trkpt lat="45.57147" lon="4.79346">
        <ele>170</ele>
        <time>2017-07-25T12:53:58Z</time>
      </trkpt>
      <trkpt lat="45.57142" lon="4.79349">
        <ele>170</ele>
        <time>2017-07-25T12:53:59Z</time>
      </trkpt>
      <trkpt lat="45.57137" lon="4.7935">
        <ele>170</ele>
        <time>2017-07-25T12:54:00Z</time>
      </trkpt>
      <trkpt lat="45.57122" lon="4.79356">
        <ele>170</ele>
        <time>2017-07-25T12:54:03Z</time>
      </trkpt>
      <trkpt lat="45.57108" lon="4.79367">
        <ele>170</ele>
        <time>2017-07-25T12:54:06Z</time>
      </trkpt>
      <trkpt lat="45.571" lon="4.79374">
        <ele>170</ele>
        <time>2017-07-25T12:54:08Z</time>
      </trkpt>
      <trkpt lat="45.57074" lon="4.79405">
        <ele>170</ele>
        <time>2017-07-25T12:54:14Z</time>
      </trkpt>
      <trkpt lat="45.57033" lon="4.79454">
        <ele>170</ele>
        <time>2017-07-25T12:54:23Z</time>
      </trkpt>
      <trkpt lat="45.57019" lon="4.79468">
        <ele>170</ele>
        <time>2017-07-25T12:54:26Z</time>
      </trkpt>
      <trkpt lat="45.57009" lon="4.79475">
        <ele>170</ele>
        <time>2017-07-25T12:54:28Z</time>
      </trkpt>
      <trkpt lat="45.56994" lon="4.79487">
        <ele>170</ele>
        <time>2017-07-25T12:54:31Z</time>
      </trkpt>
      <trkpt lat="45.56989" lon="4.79492">
        <ele>169</ele>
        <time>2017-07-25T12:54:32Z</time>
      </trkpt>
      <trkpt lat="45.56984" lon="4.79496">
        <ele>169</ele>
        <time>2017-07-25T12:54:33Z</time>
      </trkpt>
      <trkpt lat="45.56978" lon="4.795">
        <ele>168</ele>
        <time>2017-07-25T12:54:34Z</time>
      </trkpt>
      <trkpt lat="45.56973" lon="4.79504">
        <ele>168</ele>
        <time>2017-07-25T12:54:35Z</time>
      </trkpt>
      <trkpt lat="45.5695" lon="4.79522">
        <ele>168</ele>
        <time>2017-07-25T12:54:39Z</time>
      </trkpt>
      <trkpt lat="45.56939" lon="4.7953">
        <ele>168</ele>
        <time>2017-07-25T12:54:41Z</time>
      </trkpt>
      <trkpt lat="45.56904" lon="4.79553">
        <ele>168</ele>
        <time>2017-07-25T12:54:47Z</time>
      </trkpt>
      <trkpt lat="45.56886" lon="4.79564">
        <ele>168</ele>
        <time>2017-07-25T12:54:50Z</time>
      </trkpt>
      <trkpt lat="45.56867" lon="4.79572">
        <ele>168</ele>
        <time>2017-07-25T12:54:53Z</time>
      </trkpt>
      <trkpt lat="45.56828" lon="4.79599">
        <ele>168</ele>
        <time>2017-07-25T12:55:00Z</time>
      </trkpt>
      <trkpt lat="45.56806" lon="4.79616">
        <ele>168</ele>
        <time>2017-07-25T12:55:04Z</time>
      </trkpt>
      <trkpt lat="45.56801" lon="4.7962">
        <ele>169</ele>
        <time>2017-07-25T12:55:05Z</time>
      </trkpt>
      <trkpt lat="45.56795" lon="4.79625">
        <ele>169</ele>
        <time>2017-07-25T12:55:06Z</time>
      </trkpt>
      <trkpt lat="45.56789" lon="4.79629">
        <ele>170</ele>
        <time>2017-07-25T12:55:07Z</time>
      </trkpt>
      <trkpt lat="45.56783" lon="4.79633">
        <ele>170</ele>
        <time>2017-07-25T12:55:08Z</time>
      </trkpt>
      <trkpt lat="45.56751" lon="4.79651">
        <ele>170</ele>
        <time>2017-07-25T12:55:13Z</time>
      </trkpt>
      <trkpt lat="45.567" lon="4.79681">
        <ele>170</ele>
        <time>2017-07-25T12:55:21Z</time>
      </trkpt>
      <trkpt lat="45.56665" lon="4.79709">
        <ele>170</ele>
        <time>2017-07-25T12:55:27Z</time>
      </trkpt>
      <trkpt lat="45.56632" lon="4.79738">
        <ele>170</ele>
        <time>2017-07-25T12:55:33Z</time>
      </trkpt>
      <trkpt lat="45.56609" lon="4.79759">
        <ele>167</ele>
      </trkpt>
      <trkpt lat="45.5658" lon="4.79932">
        <ele>168</ele>
        <time>2017-07-25T12:56:22Z</time>
      </trkpt>
      <trkpt lat="45.56579" lon="4.79947">
        <ele>168</ele>
        <time>2017-07-25T12:56:24Z</time>
      </trkpt>
      <trkpt lat="45.56569" lon="4.79965">
        <ele>168</ele>
        <time>2017-07-25T12:56:27Z</time>
      </trkpt>
      <trkpt lat="45.56565" lon="4.79971">
        <ele>167</ele>
        <time>2017-07-25T12:56:28Z</time>
      </trkpt>
      <trkpt lat="45.5656" lon="4.79978">
        <ele>167</ele>
        <time>2017-07-25T12:56:29Z</time>
      </trkpt>
      <trkpt lat="45.56556" lon="4.79985">
        <ele>166</ele>
        <time>2017-07-25T12:56:30Z</time>
      </trkpt>
      <trkpt lat="45.56551" lon="4.79993">
        <ele>166</ele>
        <time>2017-07-25T12:56:31Z</time>
      </trkpt>
      <trkpt lat="45.56542" lon="4.80007">
        <ele>166</ele>
        <time>2017-07-25T12:56:33Z</time>
      </trkpt>
      <trkpt lat="45.56502" lon="4.80058">
        <ele>165</ele>
        <time>2017-07-25T12:56:40Z</time>
      </trkpt>
      <trkpt lat="45.56496" lon="4.80064">
        <ele>165</ele>
        <time>2017-07-25T12:56:41Z</time>
      </trkpt>
      <trkpt lat="45.5649" lon="4.8007">
        <ele>165</ele>
        <time>2017-07-25T12:56:42Z</time>
      </trkpt>
      <trkpt lat="45.56485" lon="4.80076">
        <ele>164</ele>
        <time>2017-07-25T12:56:43Z</time>
      </trkpt>
      <trkpt lat="45.56479" lon="4.80082">
        <ele>164</ele>
        <time>2017-07-25T12:56:44Z</time>
      </trkpt>
      <trkpt lat="45.56452" lon="4.80111">
        <ele>164</ele>
        <time>2017-07-25T12:56:49Z</time>
      </trkpt>
      <trkpt lat="45.56407" lon="4.80159">
        <ele>164</ele>
        <time>2017-07-25T12:56:57Z</time>
      </trkpt>
      <trkpt lat="45.56374" lon="4.80197">
        <ele>164</ele>
        <time>2017-07-25T12:57:04Z</time>
      </trkpt>
      <trkpt lat="45.56341" lon="4.80231">
        <ele>164</ele>
        <time>2017-07-25T12:57:11Z</time>
      </trkpt>
      <trkpt lat="45.56336" lon="4.80234">
        <ele>164</ele>
        <time>2017-07-25T12:57:12Z</time>
      </trkpt>
      <trkpt lat="45.56322" lon="4.80244">
        <ele>164</ele>
        <time>2017-07-25T12:57:16Z</time>
      </trkpt>
      <trkpt lat="45.56321" lon="4.80244">
        <ele>163</ele>
        <time>2017-07-25T12:57:17Z</time>
      </trkpt>
      <trkpt lat="45.56321" lon="4.80245">
        <ele>163</ele>
        <time>2017-07-25T12:57:18Z</time>
      </trkpt>
      <trkpt lat="45.5632" lon="4.80245">
        <ele>162</ele>
        <time>2017-07-25T12:57:19Z</time>
      </trkpt>
      <trkpt lat="45.5632" lon="4.80245">
        <ele>162</ele>
        <time>2017-07-25T12:57:20Z</time>
      </trkpt>
      <trkpt lat="45.56312" lon="4.80256">
        <ele>162</ele>
        <time>2017-07-25T12:57:29Z</time>
      </trkpt>
      <trkpt lat="45.56309" lon="4.80259">
        <ele>162</ele>
        <time>2017-07-25T12:57:30Z</time>
      </trkpt>
      <trkpt lat="45.56306" lon="4.80262">
        <ele>162</ele>
        <time>2017-07-25T12:57:31Z</time>
      </trkpt>
      <trkpt lat="45.56299" lon="4.80268">
        <ele>162</ele>
        <time>2017-07-25T12:57:33Z</time>
      </trkpt>
      <trkpt lat="45.56292" lon="4.80277">
        <ele>162</ele>
        <time>2017-07-25T12:57:35Z</time>
      </trkpt>
      <trkpt lat="45.56286" lon="4.80288">
        <ele>162</ele>
        <time>2017-07-25T12:57:37Z</time>
      </trkpt>
      <trkpt lat="45.56278" lon="4.80309">
        <ele>162</ele>
        <time>2017-07-25T12:57:40Z</time>
      </trkpt>
      <trkpt lat="45.56273" lon="4.80334">
        <ele>162</ele>
        <time>2017-07-25T12:57:43Z</time>
      </trkpt>
      <trkpt lat="45.56269" lon="4.80361">
        <ele>162</ele>
        <time>2017-07-25T12:57:46Z</time>
      </trkpt>
      <trkpt lat="45.56261" lon="4.80393">
        <ele>162</ele>
        <time>2017-07-25T12:57:50Z</time>
      </trkpt>
      <trkpt lat="45.56258" lon="4.804">
        <ele>162</ele>
        <time>2017-07-25T12:57:51Z</time>
      </trkpt>
      <trkpt lat="45.56249" lon="4.8042">
        <ele>162</ele>
        <time>2017-07-25T12:57:54Z</time>
      </trkpt>
      <trkpt lat="45.5624" lon="4.8043">
        <ele>162</ele>
        <time>2017-07-25T12:57:56Z</time>
      </trkpt>
      <trkpt lat="45.56219" lon="4.80436">
        <ele>162</ele>
        <time>2017-07-25T12:58:00Z</time>
      </trkpt>
      <trkpt lat="45.56207" lon="4.80432">
        <ele>162</ele>
        <time>2017-07-25T12:58:02Z</time>
      </trkpt>
      <trkpt lat="45.56201" lon="4.80431">
        <ele>162</ele>
        <time>2017-07-25T12:58:03Z</time>
      </trkpt>
      <trkpt lat="45.56195" lon="4.80432">
        <ele>162</ele>
        <time>2017-07-25T12:58:04Z</time>
      </trkpt>
      <trkpt lat="45.56176" lon="4.80442">
        <ele>162</ele>
        <time>2017-07-25T12:58:07Z</time>
      </trkpt>
      <trkpt lat="45.5617" lon="4.80447">
        <ele>162</ele>
        <time>2017-07-25T12:58:08Z</time>
      </trkpt>
      <trkpt lat="45.56135" lon="4.80475">
        <ele>162</ele>
        <time>2017-07-25T12:58:14Z</time>
      </trkpt>
      <trkpt lat="45.56104" lon="4.80501">
        <ele>162</ele>
        <time>2017-07-25T12:58:20Z</time>
      </trkpt>
      <trkpt lat="45.5607" lon="4.80525">
        <ele>162</ele>
        <time>2017-07-25T12:58:26Z</time>
      </trkpt>
      <trkpt lat="45.56047" lon="4.8054">
        <ele>162</ele>
        <time>2017-07-25T12:58:30Z</time>
      </trkpt>
      <trkpt lat="45.56042" lon="4.80543">
        <ele>162</ele>
        <time>2017-07-25T12:58:31Z</time>
      </trkpt>
      <trkpt lat="45.56032" lon="4.80548">
        <ele>162</ele>
        <time>2017-07-25T12:58:33Z</time>
      </trkpt>
      <trkpt lat="45.56023" lon="4.80551">
        <ele>162</ele>
        <time>2017-07-25T12:58:35Z</time>
      </trkpt>
      <trkpt lat="45.56018" lon="4.80552">
        <ele>162</ele>
        <time>2017-07-25T12:58:36Z</time>
      </trkpt>
      <trkpt lat="45.5601" lon="4.80552">
        <ele>162</ele>
        <time>2017-07-25T12:58:38Z</time>
      </trkpt>
      <trkpt lat="45.56005" lon="4.80553">
        <ele>163</ele>
        <time>2017-07-25T12:58:39Z</time>
      </trkpt>
      <trkpt lat="45.56001" lon="4.80553">
        <ele>163</ele>
        <time>2017-07-25T12:58:40Z</time>
      </trkpt>
      <trkpt lat="45.55997" lon="4.80553">
        <ele>164</ele>
        <time>2017-07-25T12:58:41Z</time>
      </trkpt>
      <trkpt lat="45.55994" lon="4.80553">
        <ele>164</ele>
        <time>2017-07-25T12:58:42Z</time>
      </trkpt>
      <trkpt lat="45.5599" lon="4.80553">
        <ele>164</ele>
        <time>2017-07-25T12:58:43Z</time>
      </trkpt>
      <trkpt lat="45.55987" lon="4.80553">
        <ele>164</ele>
        <time>2017-07-25T12:58:44Z</time>
      </trkpt>
      <trkpt lat="45.55977" lon="4.8056">
        <ele>166</ele>
        <time>2017-07-25T12:58:48Z</time>
      </trkpt>
      <trkpt lat="45.55977" lon="4.80568">
        <ele>166</ele>
        <time>2017-07-25T12:58:50Z</time>
      </trkpt>
      <trkpt lat="45.55988" lon="4.80585">
        <ele>166</ele>
        <time>2017-07-25T12:58:54Z</time>
      </trkpt>
      <trkpt lat="45.55991" lon="4.8059">
        <ele>166</ele>
        <time>2017-07-25T12:58:55Z</time>
      </trkpt>
      <trkpt lat="45.55995" lon="4.80602">
        <ele>166</ele>
        <time>2017-07-25T12:58:57Z</time>
      </trkpt>
      <trkpt lat="45.56003" lon="4.80629">
        <ele>166</ele>
        <time>2017-07-25T12:59:01Z</time>
      </trkpt>
      <trkpt lat="45.56004" lon="4.80636">
        <ele>166</ele>
        <time>2017-07-25T12:59:02Z</time>
      </trkpt>
      <trkpt lat="45.56009" lon="4.80663">
        <ele>166</ele>
        <time>2017-07-25T12:59:05Z</time>
      </trkpt>
      <trkpt lat="45.56003" lon="4.80673">
        <ele>166</ele>
        <time>2017-07-25T12:59:06Z</time>
      </trkpt>
      <trkpt lat="45.56003" lon="4.80677">
        <ele>166</ele>
        <time>2017-07-25T12:59:07Z</time>
      </trkpt>
      <trkpt lat="45.56011" lon="4.807">
        <ele>164</ele>
        <time>2017-07-25T12:59:11Z</time>
      </trkpt>
      <trkpt lat="45.56054" lon="4.80852">
        <ele>157</ele>
        <time>2017-07-25T12:59:51Z</time>
      </trkpt>
      <trkpt lat="45.56064" lon="4.80876">
        <ele>157</ele>
        <time>2017-07-25T12:59:55Z</time>
      </trkpt>
      <trkpt lat="45.56067" lon="4.80882">
        <ele>157</ele>
        <time>2017-07-25T12:59:56Z</time>
      </trkpt>
      <trkpt lat="45.56076" lon="4.80897">
        <ele>157</ele>
        <time>2017-07-25T12:59:59Z</time>
      </trkpt>
      <trkpt lat="45.56086" lon="4.80911">
        <ele>157</ele>
        <time>2017-07-25T13:00:02Z</time>
      </trkpt>
      <trkpt lat="45.56092" lon="4.80921">
        <ele>157</ele>
        <time>2017-07-25T13:00:04Z</time>
      </trkpt>
      <trkpt lat="45.56104" lon="4.8094">
        <ele>157</ele>
        <time>2017-07-25T13:00:08Z</time>
      </trkpt>
      <trkpt lat="45.56107" lon="4.80945">
        <ele>157</ele>
        <time>2017-07-25T13:00:09Z</time>
      </trkpt>
      <trkpt lat="45.56108" lon="4.80957">
        <ele>157</ele>
        <time>2017-07-25T13:00:11Z</time>
      </trkpt>
      <trkpt lat="45.56106" lon="4.80987">
        <ele>157</ele>
        <time>2017-07-25T13:00:15Z</time>
      </trkpt>
      <trkpt lat="45.56106" lon="4.81003">
        <ele>157</ele>
        <time>2017-07-25T13:00:17Z</time>
      </trkpt>
      <trkpt lat="45.56105" lon="4.81031">
        <ele>157</ele>
        <time>2017-07-25T13:00:21Z</time>
      </trkpt>
      <trkpt lat="45.56106" lon="4.81054">
        <ele>156</ele>
      </trkpt>
      <trkpt lat="45.56118" lon="4.81106">
        <ele>157</ele>
        <time>2017-07-25T13:01:17Z</time>
      </trkpt>
      <trkpt lat="45.56128" lon="4.81143">
        <ele>157</ele>
        <time>2017-07-25T13:01:23Z</time>
      </trkpt>
      <trkpt lat="45.5613" lon="4.81148">
        <ele>157</ele>
        <time>2017-07-25T13:01:24Z</time>
      </trkpt>
      <trkpt lat="45.56133" lon="4.81153">
        <ele>157</ele>
        <time>2017-07-25T13:01:25Z</time>
      </trkpt>
      <trkpt lat="45.56137" lon="4.81168">
        <ele>157</ele>
        <time>2017-07-25T13:01:28Z</time>
      </trkpt>
      <trkpt lat="45.56141" lon="4.81193">
        <ele>157</ele>
        <time>2017-07-25T13:01:33Z</time>
      </trkpt>
      <trkpt lat="45.5614" lon="4.81205">
        <ele>157</ele>
        <time>2017-07-25T13:01:36Z</time>
      </trkpt>
      <trkpt lat="45.56137" lon="4.81208">
        <ele>157</ele>
        <time>2017-07-25T13:01:37Z</time>
      </trkpt>
      <trkpt lat="45.56113" lon="4.81228">
        <ele>157</ele>
        <time>2017-07-25T13:01:43Z</time>
      </trkpt>
      <trkpt lat="45.56089" lon="4.81246">
        <ele>157</ele>
        <time>2017-07-25T13:01:48Z</time>
      </trkpt>
      <trkpt lat="45.5608" lon="4.81254">
        <ele>157</ele>
        <time>2017-07-25T13:01:50Z</time>
      </trkpt>
      <trkpt lat="45.56044" lon="4.81279">
        <ele>157</ele>
        <time>2017-07-25T13:01:57Z</time>
      </trkpt>
      <trkpt lat="45.56005" lon="4.81306">
        <ele>157</ele>
        <time>2017-07-25T13:02:04Z</time>
      </trkpt>
      <trkpt lat="45.55951" lon="4.81344">
        <ele>157</ele>
        <time>2017-07-25T13:02:13Z</time>
      </trkpt>
      <trkpt lat="45.55907" lon="4.81374">
        <ele>157</ele>
        <time>2017-07-25T13:02:20Z</time>
      </trkpt>
      <trkpt lat="45.55868" lon="4.814">
        <ele>157</ele>
        <time>2017-07-25T13:02:27Z</time>
      </trkpt>
      <trkpt lat="45.55834" lon="4.8142">
        <ele>157</ele>
        <time>2017-07-25T13:02:33Z</time>
      </trkpt>
      <trkpt lat="45.55794" lon="4.81446">
        <ele>157</ele>
        <time>2017-07-25T13:02:40Z</time>
      </trkpt>
      <trkpt lat="45.55748" lon="4.81477">
        <ele>157</ele>
        <time>2017-07-25T13:02:48Z</time>
      </trkpt>
      <trkpt lat="45.55712" lon="4.81501">
        <ele>157</ele>
        <time>2017-07-25T13:02:54Z</time>
      </trkpt>
      <trkpt lat="45.55672" lon="4.81529">
        <ele>157</ele>
        <time>2017-07-25T13:03:01Z</time>
      </trkpt>
      <trkpt lat="45.55642" lon="4.81551">
        <ele>157</ele>
        <time>2017-07-25T13:03:06Z</time>
      </trkpt>
      <trkpt lat="45.55601" lon="4.8158">
        <ele>157</ele>
        <time>2017-07-25T13:03:13Z</time>
      </trkpt>
      <trkpt lat="45.55562" lon="4.81614">
        <ele>157</ele>
        <time>2017-07-25T13:03:20Z</time>
      </trkpt>
      <trkpt lat="45.55521" lon="4.81659">
        <ele>157</ele>
        <time>2017-07-25T13:03:28Z</time>
      </trkpt>
      <trkpt lat="45.55488" lon="4.81704">
        <ele>157</ele>
        <time>2017-07-25T13:03:35Z</time>
      </trkpt>
      <trkpt lat="45.5548" lon="4.81715">
        <ele>157</ele>
        <time>2017-07-25T13:03:37Z</time>
      </trkpt>
      <trkpt lat="45.55467" lon="4.81732">
        <ele>157</ele>
        <time>2017-07-25T13:03:40Z</time>
      </trkpt>
      <trkpt lat="45.5546" lon="4.81745">
        <ele>157</ele>
        <time>2017-07-25T13:03:42Z</time>
      </trkpt>
      <trkpt lat="45.55449" lon="4.81766">
        <ele>157</ele>
        <time>2017-07-25T13:03:45Z</time>
      </trkpt>
      <trkpt lat="45.55418" lon="4.81826">
        <ele>157</ele>
        <time>2017-07-25T13:03:53Z</time>
      </trkpt>
      <trkpt lat="45.55407" lon="4.81848">
        <ele>157</ele>
        <time>2017-07-25T13:03:56Z</time>
      </trkpt>
      <trkpt lat="45.55398" lon="4.81869">
        <ele>157</ele>
        <time>2017-07-25T13:03:59Z</time>
      </trkpt>
      <trkpt lat="45.55369" lon="4.81923">
        <ele>157</ele>
        <time>2017-07-25T13:04:07Z</time>
      </trkpt>
      <trkpt lat="45.55359" lon="4.81939">
        <ele>157</ele>
        <time>2017-07-25T13:04:11Z</time>
      </trkpt>
      <trkpt lat="45.55358" lon="4.8194">
        <ele>157</ele>
        <time>2017-07-25T13:04:15Z</time>
      </trkpt>
      <trkpt lat="45.55358" lon="4.8194">
        <ele>157</ele>
        <time>2017-07-25T13:04:24Z</time>
      </trkpt>
      <trkpt lat="45.55355" lon="4.81944">
        <ele>157</ele>
        <time>2017-07-25T13:04:29Z</time>
      </trkpt>
      <trkpt lat="45.55344" lon="4.8196">
        <ele>157</ele>
        <time>2017-07-25T13:04:33Z</time>
      </trkpt>
      <trkpt lat="45.55341" lon="4.81964">
        <ele>157</ele>
        <time>2017-07-25T13:04:34Z</time>
      </trkpt>
      <trkpt lat="45.55334" lon="4.81974">
        <ele>157</ele>
        <time>2017-07-25T13:04:36Z</time>
      </trkpt>
      <trkpt lat="45.55331" lon="4.81979">
        <ele>157</ele>
        <time>2017-07-25T13:04:37Z</time>
      </trkpt>
      <trkpt lat="45.55314" lon="4.81996">
        <ele>157</ele>
        <time>2017-07-25T13:04:41Z</time>
      </trkpt>
      <trkpt lat="45.55305" lon="4.82003">
        <ele>157</ele>
        <time>2017-07-25T13:04:43Z</time>
      </trkpt>
      <trkpt lat="45.5528" lon="4.82029">
        <ele>157</ele>
        <time>2017-07-25T13:04:49Z</time>
      </trkpt>
      <trkpt lat="45.55249" lon="4.82059">
        <ele>157</ele>
        <time>2017-07-25T13:04:56Z</time>
      </trkpt>
      <trkpt lat="45.55224" lon="4.82084">
        <ele>157</ele>
        <time>2017-07-25T13:05:02Z</time>
      </trkpt>
      <trkpt lat="45.5522" lon="4.82088">
        <ele>157</ele>
        <time>2017-07-25T13:05:03Z</time>
      </trkpt>
      <trkpt lat="45.55195" lon="4.82125">
        <ele>157</ele>
        <time>2017-07-25T13:05:10Z</time>
      </trkpt>
      <trkpt lat="45.5519" lon="4.8214">
        <ele>157</ele>
        <time>2017-07-25T13:05:13Z</time>
      </trkpt>
      <trkpt lat="45.5519" lon="4.82144">
        <ele>157</ele>
        <time>2017-07-25T13:05:14Z</time>
      </trkpt>
      <trkpt lat="45.55189" lon="4.82159">
        <ele>157</ele>
        <time>2017-07-25T13:05:18Z</time>
      </trkpt>
      <trkpt lat="45.55187" lon="4.82163">
        <ele>157</ele>
        <time>2017-07-25T13:05:19Z</time>
      </trkpt>
      <trkpt lat="45.55176" lon="4.82183">
        <ele>157</ele>
        <time>2017-07-25T13:05:23Z</time>
      </trkpt>
      <trkpt lat="45.55157" lon="4.82223">
        <ele>157</ele>
        <time>2017-07-25T13:05:29Z</time>
      </trkpt>
      <trkpt lat="45.55134" lon="4.82262">
        <ele>157</ele>
        <time>2017-07-25T13:05:35Z</time>
      </trkpt>
      <trkpt lat="45.55111" lon="4.82297">
        <ele>157</ele>
        <time>2017-07-25T13:05:41Z</time>
      </trkpt>
      <trkpt lat="45.55081" lon="4.82339">
        <ele>157</ele>
        <time>2017-07-25T13:05:48Z</time>
      </trkpt>
      <trkpt lat="45.55046" lon="4.8238">
        <ele>157</ele>
        <time>2017-07-25T13:05:55Z</time>
      </trkpt>
      <trkpt lat="45.55006" lon="4.82419">
        <ele>157</ele>
        <time>2017-07-25T13:06:02Z</time>
      </trkpt>
      <trkpt lat="45.54966" lon="4.82456">
        <ele>157</ele>
        <time>2017-07-25T13:06:09Z</time>
      </trkpt>
      <trkpt lat="45.54934" lon="4.82483">
        <ele>157</ele>
        <time>2017-07-25T13:06:15Z</time>
      </trkpt>
      <trkpt lat="45.54901" lon="4.82513">
        <ele>157</ele>
        <time>2017-07-25T13:06:23Z</time>
      </trkpt>
      <trkpt lat="45.54886" lon="4.82524">
        <ele>157</ele>
        <time>2017-07-25T13:06:28Z</time>
      </trkpt>
      <trkpt lat="45.5487" lon="4.82539">
        <ele>157</ele>
        <time>2017-07-25T13:06:35Z</time>
      </trkpt>
      <trkpt lat="45.54857" lon="4.82552">
        <ele>157</ele>
        <time>2017-07-25T13:06:41Z</time>
      </trkpt>
      <trkpt lat="45.54835" lon="4.8257">
        <ele>157</ele>
        <time>2017-07-25T13:06:50Z</time>
      </trkpt>
      <trkpt lat="45.54821" lon="4.82581">
        <ele>157</ele>
        <time>2017-07-25T13:06:56Z</time>
      </trkpt>
      <trkpt lat="45.54807" lon="4.82594">
        <ele>157</ele>
        <time>2017-07-25T13:07:03Z</time>
      </trkpt>
      <trkpt lat="45.54708" lon="4.82692">
        <ele>157</ele>
        <time>2017-07-25T13:07:21Z</time>
      </trkpt>
      <trkpt lat="45.54703" lon="4.82701">
        <ele>157</ele>
        <time>2017-07-25T13:07:22Z</time>
      </trkpt>
      <trkpt lat="45.54692" lon="4.82721">
        <ele>157</ele>
        <time>2017-07-25T13:07:25Z</time>
      </trkpt>
      <trkpt lat="45.54682" lon="4.82756">
        <ele>157</ele>
        <time>2017-07-25T13:07:29Z</time>
      </trkpt>
      <trkpt lat="45.54681" lon="4.82767">
        <ele>157</ele>
        <time>2017-07-25T13:07:30Z</time>
      </trkpt>
      <trkpt lat="45.54677" lon="4.82818">
        <ele>157</ele>
        <time>2017-07-25T13:07:35Z</time>
      </trkpt>
      <trkpt lat="45.54673" lon="4.82891">
        <ele>157</ele>
        <time>2017-07-25T13:07:42Z</time>
      </trkpt>
      <trkpt lat="45.54668" lon="4.82921">
        <ele>157</ele>
        <time>2017-07-25T13:07:45Z</time>
      </trkpt>
      <trkpt lat="45.54664" lon="4.8293">
        <ele>157</ele>
        <time>2017-07-25T13:07:46Z</time>
      </trkpt>
      <trkpt lat="45.54647" lon="4.8295">
        <ele>157</ele>
        <time>2017-07-25T13:07:49Z</time>
      </trkpt>
      <trkpt lat="45.54607" lon="4.83005">
        <ele>157</ele>
        <time>2017-07-25T13:07:56Z</time>
      </trkpt>
      <trkpt lat="45.54602" lon="4.83013">
        <ele>157</ele>
        <time>2017-07-25T13:07:57Z</time>
      </trkpt>
      <trkpt lat="45.54561" lon="4.83071">
        <ele>157</ele>
        <time>2017-07-25T13:08:04Z</time>
      </trkpt>
      <trkpt lat="45.54556" lon="4.83079">
        <ele>157</ele>
        <time>2017-07-25T13:08:05Z</time>
      </trkpt>
      <trkpt lat="45.54483" lon="4.83193">
        <ele>157</ele>
        <time>2017-07-25T13:08:21Z</time>
      </trkpt>
      <trkpt lat="45.54455" lon="4.83236">
        <ele>157</ele>
        <time>2017-07-25T13:08:27Z</time>
      </trkpt>
      <trkpt lat="45.54417" lon="4.83297">
        <ele>157</ele>
        <time>2017-07-25T13:08:36Z</time>
      </trkpt>
      <trkpt lat="45.5438" lon="4.83362">
        <ele>157</ele>
        <time>2017-07-25T13:08:44Z</time>
      </trkpt>
      <trkpt lat="45.54354" lon="4.83412">
        <ele>157</ele>
        <time>2017-07-25T13:08:50Z</time>
      </trkpt>
      <trkpt lat="45.5435" lon="4.83421">
        <ele>156</ele>
        <time>2017-07-25T13:08:51Z</time>
      </trkpt>
      <trkpt lat="45.54345" lon="4.83429">
        <ele>156</ele>
        <time>2017-07-25T13:08:52Z</time>
      </trkpt>
      <trkpt lat="45.54341" lon="4.83437">
        <ele>155</ele>
        <time>2017-07-25T13:08:53Z</time>
      </trkpt>
      <trkpt lat="45.54336" lon="4.83446">
        <ele>155</ele>
        <time>2017-07-25T13:08:54Z</time>
      </trkpt>
      <trkpt lat="45.54308" lon="4.83505">
        <ele>155</ele>
        <time>2017-07-25T13:09:01Z</time>
      </trkpt>
      <trkpt lat="45.54278" lon="4.83574">
        <ele>155</ele>
        <time>2017-07-25T13:09:09Z</time>
      </trkpt>
      <trkpt lat="45.5425" lon="4.83644">
        <ele>155</ele>
        <time>2017-07-25T13:09:17Z</time>
      </trkpt>
      <trkpt lat="45.54225" lon="4.83714">
        <ele>155</ele>
        <time>2017-07-25T13:09:25Z</time>
      </trkpt>
      <trkpt lat="45.54223" lon="4.83723">
        <ele>155</ele>
        <time>2017-07-25T13:09:26Z</time>
      </trkpt>
      <trkpt lat="45.54203" lon="4.83781">
        <ele>155</ele>
        <time>2017-07-25T13:09:33Z</time>
      </trkpt>
      <trkpt lat="45.54179" lon="4.83855">
        <ele>155</ele>
        <time>2017-07-25T13:09:42Z</time>
      </trkpt>
      <trkpt lat="45.54173" lon="4.83877">
        <ele>155</ele>
        <time>2017-07-25T13:09:45Z</time>
      </trkpt>
      <trkpt lat="45.54168" lon="4.83892">
        <ele>155</ele>
        <time>2017-07-25T13:09:47Z</time>
      </trkpt>
      <trkpt lat="45.54151" lon="4.83959">
        <ele>155</ele>
        <time>2017-07-25T13:09:55Z</time>
      </trkpt>
      <trkpt lat="45.54148" lon="4.83974">
        <ele>155</ele>
        <time>2017-07-25T13:09:57Z</time>
      </trkpt>
      <trkpt lat="45.54144" lon="4.83997">
        <ele>155</ele>
        <time>2017-07-25T13:10:00Z</time>
      </trkpt>
      <trkpt lat="45.54139" lon="4.84025">
        <ele>155</ele>
        <time>2017-07-25T13:10:04Z</time>
      </trkpt>
      <trkpt lat="45.54137" lon="4.84033">
        <ele>155</ele>
        <time>2017-07-25T13:10:05Z</time>
      </trkpt>
      <trkpt lat="45.54129" lon="4.84068">
        <ele>155</ele>
        <time>2017-07-25T13:10:09Z</time>
      </trkpt>
      <trkpt lat="45.54126" lon="4.84077">
        <ele>155</ele>
        <time>2017-07-25T13:10:10Z</time>
      </trkpt>
      <trkpt lat="45.54114" lon="4.84128">
        <ele>155</ele>
        <time>2017-07-25T13:10:16Z</time>
      </trkpt>
      <trkpt lat="45.54107" lon="4.84163">
        <ele>155</ele>
        <time>2017-07-25T13:10:20Z</time>
      </trkpt>
      <trkpt lat="45.54104" lon="4.84172">
        <ele>155</ele>
        <time>2017-07-25T13:10:21Z</time>
      </trkpt>
      <trkpt lat="45.54086" lon="4.84239">
        <ele>155</ele>
        <time>2017-07-25T13:10:28Z</time>
      </trkpt>
      <trkpt lat="45.54069" lon="4.84314">
        <ele>155</ele>
        <time>2017-07-25T13:10:36Z</time>
      </trkpt>
      <trkpt lat="45.54063" lon="4.8434">
        <ele>155</ele>
        <time>2017-07-25T13:10:39Z</time>
      </trkpt>
      <trkpt lat="45.5406" lon="4.84356">
        <ele>155</ele>
        <time>2017-07-25T13:10:41Z</time>
      </trkpt>
      <trkpt lat="45.54057" lon="4.84372">
        <ele>155</ele>
        <time>2017-07-25T13:10:43Z</time>
      </trkpt>
      <trkpt lat="45.54051" lon="4.84405">
        <ele>155</ele>
        <time>2017-07-25T13:10:47Z</time>
      </trkpt>
      <trkpt lat="45.54049" lon="4.84414">
        <ele>155</ele>
        <time>2017-07-25T13:10:48Z</time>
      </trkpt>
      <trkpt lat="45.54048" lon="4.84423">
        <ele>154</ele>
        <time>2017-07-25T13:10:49Z</time>
      </trkpt>
      <trkpt lat="45.54047" lon="4.84432">
        <ele>154</ele>
        <time>2017-07-25T13:10:50Z</time>
      </trkpt>
      <trkpt lat="45.54046" lon="4.84441">
        <ele>153</ele>
        <time>2017-07-25T13:10:51Z</time>
      </trkpt>
      <trkpt lat="45.54044" lon="4.84451">
        <ele>153</ele>
        <time>2017-07-25T13:10:52Z</time>
      </trkpt>
      <trkpt lat="45.54042" lon="4.84469">
        <ele>153</ele>
        <time>2017-07-25T13:10:54Z</time>
      </trkpt>
      <trkpt lat="45.5403" lon="4.84546">
        <ele>153</ele>
        <time>2017-07-25T13:11:02Z</time>
      </trkpt>
      <trkpt lat="45.54023" lon="4.84604">
        <ele>153</ele>
        <time>2017-07-25T13:11:09Z</time>
      </trkpt>
      <trkpt lat="45.54014" lon="4.84681">
        <ele>153</ele>
        <time>2017-07-25T13:11:18Z</time>
      </trkpt>
      <trkpt lat="45.54011" lon="4.84716">
        <ele>153</ele>
        <time>2017-07-25T13:11:22Z</time>
      </trkpt>
      <trkpt lat="45.5401" lon="4.84725">
        <ele>153</ele>
        <time>2017-07-25T13:11:23Z</time>
      </trkpt>
      <trkpt lat="45.54004" lon="4.84778">
        <ele>153</ele>
        <time>2017-07-25T13:11:29Z</time>
      </trkpt>
      <trkpt lat="45.53998" lon="4.84832">
        <ele>153</ele>
        <time>2017-07-25T13:11:35Z</time>
      </trkpt>
      <trkpt lat="45.53991" lon="4.84902">
        <ele>153</ele>
        <time>2017-07-25T13:11:43Z</time>
      </trkpt>
      <trkpt lat="45.53985" lon="4.84961">
        <ele>153</ele>
        <time>2017-07-25T13:11:50Z</time>
      </trkpt>
      <trkpt lat="45.53964" lon="4.85138">
        <ele>153</ele>
        <time>2017-07-25T13:12:16Z</time>
      </trkpt>
      <trkpt lat="45.53959" lon="4.85198">
        <ele>153</ele>
        <time>2017-07-25T13:12:23Z</time>
      </trkpt>
      <trkpt lat="45.53952" lon="4.85273">
        <ele>153</ele>
        <time>2017-07-25T13:12:32Z</time>
      </trkpt>
      <trkpt lat="45.53947" lon="4.85321">
        <ele>153</ele>
        <time>2017-07-25T13:12:39Z</time>
      </trkpt>
      <trkpt lat="45.53926" lon="4.85454">
        <ele>153</ele>
        <time>2017-07-25T13:13:31Z</time>
      </trkpt>
      <trkpt lat="45.53917" lon="4.85483">
        <ele>153</ele>
        <time>2017-07-25T13:13:37Z</time>
      </trkpt>
      <trkpt lat="45.53906" lon="4.85483">
        <ele>153</ele>
        <time>2017-07-25T13:13:40Z</time>
      </trkpt>
      <trkpt lat="45.53888" lon="4.85478">
        <ele>153</ele>
        <time>2017-07-25T13:13:44Z</time>
      </trkpt>
      <trkpt lat="45.53883" lon="4.85477">
        <ele>153</ele>
        <time>2017-07-25T13:13:45Z</time>
      </trkpt>
      <trkpt lat="45.5387" lon="4.85474">
        <ele>153</ele>
        <time>2017-07-25T13:13:49Z</time>
      </trkpt>
      <trkpt lat="45.53852" lon="4.85469">
        <ele>153</ele>
        <time>2017-07-25T13:13:54Z</time>
      </trkpt>
      <trkpt lat="45.53836" lon="4.85466">
        <ele>153</ele>
        <time>2017-07-25T13:13:59Z</time>
      </trkpt>
      <trkpt lat="45.5383" lon="4.85469">
        <ele>153</ele>
        <time>2017-07-25T13:14:01Z</time>
      </trkpt>
      <trkpt lat="45.53829" lon="4.85474">
        <ele>153</ele>
        <time>2017-07-25T13:14:02Z</time>
      </trkpt>
      <trkpt lat="45.53827" lon="4.855">
        <ele>153</ele>
        <time>2017-07-25T13:14:06Z</time>
      </trkpt>
      <trkpt lat="45.53826" lon="4.85508">
        <ele>153</ele>
        <time>2017-07-25T13:14:07Z</time>
      </trkpt>
      <trkpt lat="45.53805" lon="4.85647">
        <ele>153</ele>
        <time>2017-07-25T13:16:53Z</time>
      </trkpt>
      <trkpt lat="45.53803" lon="4.85662">
        <ele>153</ele>
        <time>2017-07-25T13:16:55Z</time>
      </trkpt>
      <trkpt lat="45.53801" lon="4.85677">
        <ele>153</ele>
        <time>2017-07-25T13:16:57Z</time>
      </trkpt>
      <trkpt lat="45.53795" lon="4.85704">
        <ele>153</ele>
        <time>2017-07-25T13:17:01Z</time>
      </trkpt>
      <trkpt lat="45.53792" lon="4.85717">
        <ele>153</ele>
        <time>2017-07-25T13:17:03Z</time>
      </trkpt>
      <trkpt lat="45.53786" lon="4.85772">
        <ele>153</ele>
        <time>2017-07-25T13:17:10Z</time>
      </trkpt>
      <trkpt lat="45.53778" lon="4.85827">
        <ele>153</ele>
        <time>2017-07-25T13:17:17Z</time>
      </trkpt>
      <trkpt lat="45.53771" lon="4.85871">
        <ele>153</ele>
        <time>2017-07-25T13:17:23Z</time>
      </trkpt>
      <trkpt lat="45.53763" lon="4.85926">
        <ele>153</ele>
        <time>2017-07-25T13:17:30Z</time>
      </trkpt>
      <trkpt lat="45.53758" lon="4.85963">
        <ele>153</ele>
        <time>2017-07-25T13:17:35Z</time>
      </trkpt>
      <trkpt lat="45.53757" lon="4.85971">
        <ele>153</ele>
        <time>2017-07-25T13:17:36Z</time>
      </trkpt>
      <trkpt lat="45.5375" lon="4.86021">
        <ele>153</ele>
        <time>2017-07-25T13:17:42Z</time>
      </trkpt>
      <trkpt lat="45.5374" lon="4.86082">
        <ele>153</ele>
        <time>2017-07-25T13:17:49Z</time>
      </trkpt>
      <trkpt lat="45.53726" lon="4.86133">
        <ele>153</ele>
        <time>2017-07-25T13:17:55Z</time>
      </trkpt>
      <trkpt lat="45.53711" lon="4.86182">
        <ele>153</ele>
        <time>2017-07-25T13:18:01Z</time>
      </trkpt>
      <trkpt lat="45.53691" lon="4.86235">
        <ele>153</ele>
        <time>2017-07-25T13:18:08Z</time>
      </trkpt>
      <trkpt lat="45.53673" lon="4.8628">
        <ele>153</ele>
        <time>2017-07-25T13:18:14Z</time>
      </trkpt>
      <trkpt lat="45.53656" lon="4.86327">
        <ele>153</ele>
        <time>2017-07-25T13:18:20Z</time>
      </trkpt>
      <trkpt lat="45.53637" lon="4.86389">
        <ele>153</ele>
        <time>2017-07-25T13:18:27Z</time>
      </trkpt>
      <trkpt lat="45.53625" lon="4.86438">
        <ele>153</ele>
        <time>2017-07-25T13:18:33Z</time>
      </trkpt>
      <trkpt lat="45.53606" lon="4.86495">
        <ele>153</ele>
        <time>2017-07-25T13:18:40Z</time>
      </trkpt>
      <trkpt lat="45.53588" lon="4.86546">
        <ele>153</ele>
        <time>2017-07-25T13:18:46Z</time>
      </trkpt>
      <trkpt lat="45.5357" lon="4.86589">
        <ele>153</ele>
        <time>2017-07-25T13:18:52Z</time>
      </trkpt>
      <trkpt lat="45.53551" lon="4.86633">
        <ele>153</ele>
        <time>2017-07-25T13:18:58Z</time>
      </trkpt>
      <trkpt lat="45.53542" lon="4.86656">
        <ele>153</ele>
        <time>2017-07-25T13:19:01Z</time>
      </trkpt>
      <trkpt lat="45.53532" lon="4.86682">
        <ele>153</ele>
        <time>2017-07-25T13:19:04Z</time>
      </trkpt>
      <trkpt lat="45.53529" lon="4.86689">
        <ele>153</ele>
        <time>2017-07-25T13:19:05Z</time>
      </trkpt>
      <trkpt lat="45.53512" lon="4.86724">
        <ele>153</ele>
        <time>2017-07-25T13:19:09Z</time>
      </trkpt>
      <trkpt lat="45.53479" lon="4.86789">
        <ele>153</ele>
        <time>2017-07-25T13:19:17Z</time>
      </trkpt>
      <trkpt lat="45.5345" lon="4.86832">
        <ele>153</ele>
        <time>2017-07-25T13:19:23Z</time>
      </trkpt>
      <trkpt lat="45.53425" lon="4.86872">
        <ele>153</ele>
        <time>2017-07-25T13:19:29Z</time>
      </trkpt>
      <trkpt lat="45.534" lon="4.86905">
        <ele>153</ele>
        <time>2017-07-25T13:19:34Z</time>
      </trkpt>
      <trkpt lat="45.53377" lon="4.86939">
        <ele>153</ele>
        <time>2017-07-25T13:19:39Z</time>
      </trkpt>
      <trkpt lat="45.53341" lon="4.86989">
        <ele>153</ele>
        <time>2017-07-25T13:19:47Z</time>
      </trkpt>
      <trkpt lat="45.53306" lon="4.87028">
        <ele>153</ele>
        <time>2017-07-25T13:19:54Z</time>
      </trkpt>
      <trkpt lat="45.53264" lon="4.87066">
        <ele>153</ele>
        <time>2017-07-25T13:20:02Z</time>
      </trkpt>
      <trkpt lat="45.53237" lon="4.87089">
        <ele>153</ele>
        <time>2017-07-25T13:20:07Z</time>
      </trkpt>
      <trkpt lat="45.53226" lon="4.87097">
        <ele>153</ele>
        <time>2017-07-25T13:20:09Z</time>
      </trkpt>
      <trkpt lat="45.53194" lon="4.87124">
        <ele>153</ele>
        <time>2017-07-25T13:20:15Z</time>
      </trkpt>
      <trkpt lat="45.53184" lon="4.87132">
        <ele>153</ele>
        <time>2017-07-25T13:20:17Z</time>
      </trkpt>
      <trkpt lat="45.53166" lon="4.87146">
        <ele>153</ele>
        <time>2017-07-25T13:20:21Z</time>
      </trkpt>
      <trkpt lat="45.53138" lon="4.87161">
        <ele>153</ele>
        <time>2017-07-25T13:20:27Z</time>
      </trkpt>
      <trkpt lat="45.53127" lon="4.87165">
        <ele>153</ele>
        <time>2017-07-25T13:20:29Z</time>
      </trkpt>
      <trkpt lat="45.53105" lon="4.8717">
        <ele>153</ele>
        <time>2017-07-25T13:20:33Z</time>
      </trkpt>
      <trkpt lat="45.53074" lon="4.87172">
        <ele>153</ele>
        <time>2017-07-25T13:20:39Z</time>
      </trkpt>
      <trkpt lat="45.53065" lon="4.87172">
        <ele>153</ele>
        <time>2017-07-25T13:20:41Z</time>
      </trkpt>
      <trkpt lat="45.53051" lon="4.87171">
        <ele>153</ele>
        <time>2017-07-25T13:20:44Z</time>
      </trkpt>
      <trkpt lat="45.52907" lon="4.87141">
        <ele>153</ele>
        <time>2017-07-25T13:21:14Z</time>
      </trkpt>
      <trkpt lat="45.52885" lon="4.87135">
        <ele>153</ele>
        <time>2017-07-25T13:21:19Z</time>
      </trkpt>
      <trkpt lat="45.5288" lon="4.87134">
        <ele>153</ele>
        <time>2017-07-25T13:21:20Z</time>
      </trkpt>
      <trkpt lat="45.52849" lon="4.8712">
        <ele>153</ele>
        <time>2017-07-25T13:21:26Z</time>
      </trkpt>
      <trkpt lat="45.52827" lon="4.87108">
        <ele>153</ele>
        <time>2017-07-25T13:21:30Z</time>
      </trkpt>
      <trkpt lat="45.52777" lon="4.87074">
        <ele>153</ele>
        <time>2017-07-25T13:21:38Z</time>
      </trkpt>
      <trkpt lat="45.52745" lon="4.87054">
        <ele>153</ele>
        <time>2017-07-25T13:21:44Z</time>
      </trkpt>
      <trkpt lat="45.52709" lon="4.87029">
        <ele>153</ele>
        <time>2017-07-25T13:21:51Z</time>
      </trkpt>
      <trkpt lat="45.52675" lon="4.87009">
        <ele>153</ele>
        <time>2017-07-25T13:21:58Z</time>
      </trkpt>
      <trkpt lat="45.52655" lon="4.86994">
        <ele>153</ele>
        <time>2017-07-25T13:22:03Z</time>
      </trkpt>
      <trkpt lat="45.52648" lon="4.86989">
        <ele>153</ele>
        <time>2017-07-25T13:22:05Z</time>
      </trkpt>
      <trkpt lat="45.52638" lon="4.86977">
        <ele>153</ele>
        <time>2017-07-25T13:22:09Z</time>
      </trkpt>
      <trkpt lat="45.52548" lon="4.86907">
        <ele>152.8</ele>
      </trkpt>
      <trkpt lat="45.52543" lon="4.86909">
        <ele>157</ele>
        <time>2013-04-23T11:07:21Z</time>
      </trkpt>
      <trkpt lat="45.52407" lon="4.86798">
        <ele>155</ele>
        <time>2013-04-23T11:09:37Z</time>
      </trkpt>
      <trkpt lat="45.5231" lon="4.86676">
        <ele>155</ele>
        <time>2013-04-23T11:10:06Z</time>
      </trkpt>
      <trkpt lat="45.52274" lon="4.86612">
        <ele>155</ele>
        <time>2013-04-23T11:10:19Z</time>
      </trkpt>
      <trkpt lat="45.51731" lon="4.86012">
        <ele>155</ele>
        <time>2013-04-23T11:13:10Z</time>
      </trkpt>
      <trkpt lat="45.51406" lon="4.85583">
        <ele>155</ele>
        <time>2013-04-23T11:14:33Z</time>
      </trkpt>
      <trkpt lat="45.5134" lon="4.85423">
        <ele>155</ele>
        <time>2013-04-23T11:15:01Z</time>
      </trkpt>
      <trkpt lat="45.51288" lon="4.85331">
        <ele>155</ele>
        <time>2013-04-23T11:15:19Z</time>
      </trkpt>
      <trkpt lat="45.51237" lon="4.85348">
        <ele>155</ele>
        <time>2013-04-23T11:15:39Z</time>
      </trkpt>
      <trkpt lat="45.51186" lon="4.85281">
        <ele>157</ele>
        <time>2013-04-23T11:17:58Z</time>
      </trkpt>
      <trkpt lat="45.50569" lon="4.84454">
        <ele>157</ele>
        <time>2013-04-23T11:21:29Z</time>
      </trkpt>
      <trkpt lat="45.50237" lon="4.84049">
        <ele>157</ele>
        <time>2013-04-23T11:22:51Z</time>
      </trkpt>
      <trkpt lat="45.50158" lon="4.83911">
        <ele>157</ele>
        <time>2013-04-23T11:23:15Z</time>
      </trkpt>
      <trkpt lat="45.50149" lon="4.83882">
        <ele>157</ele>
        <time>2013-04-23T11:23:20Z</time>
      </trkpt>
      <trkpt lat="45.5016" lon="4.83858">
        <ele>157</ele>
        <time>2013-04-23T11:23:24Z</time>
      </trkpt>
      <trkpt lat="45.50176" lon="4.83853">
        <ele>155</ele>
        <time>2013-04-23T11:23:30Z</time>
      </trkpt>
      <trkpt lat="45.50183" lon="4.83813">
        <ele>155</ele>
        <time>2013-04-23T11:23:38Z</time>
      </trkpt>
      <trkpt lat="45.50135" lon="4.83675">
        <ele>155</ele>
        <time>2013-04-23T11:24:01Z</time>
      </trkpt>
      <trkpt lat="45.50121" lon="4.83635">
        <ele>153</ele>
        <time>2013-04-23T11:24:08Z</time>
      </trkpt>
      <trkpt lat="45.50011" lon="4.83206">
        <ele>153</ele>
        <time>2013-04-23T11:32:17Z</time>
      </trkpt>
      <trkpt lat="45.49939" lon="4.83045">
        <ele>153</ele>
        <time>2013-04-23T11:32:45Z</time>
      </trkpt>
      <trkpt lat="45.49668" lon="4.82591">
        <ele>153</ele>
        <time>2013-04-23T11:34:28Z</time>
      </trkpt>
      <trkpt lat="45.49765" lon="4.82468">
        <ele>153</ele>
        <time>2013-04-23T11:35:13Z</time>
      </trkpt>
      <trkpt lat="45.49685" lon="4.82321">
        <ele>155</ele>
        <time>2013-04-23T11:35:46Z</time>
      </trkpt>
      <trkpt lat="45.49636" lon="4.82246">
        <ele>155</ele>
        <time>2013-04-23T11:35:59Z</time>
      </trkpt>
      <trkpt lat="45.49607" lon="4.82243">
        <ele>153</ele>
        <time>2013-04-23T11:36:32Z</time>
      </trkpt>
      <trkpt lat="45.4943" lon="4.82117">
        <ele>153</ele>
        <time>2013-04-23T11:39:48Z</time>
      </trkpt>
      <trkpt lat="45.49317" lon="4.82009">
        <ele>153</ele>
        <time>2013-04-23T11:40:23Z</time>
      </trkpt>
      <trkpt lat="45.49312" lon="4.82006">
        <ele>151</ele>
        <time>2013-04-23T11:40:42Z</time>
      </trkpt>
      <trkpt lat="45.49265" lon="4.81929">
        <ele>151</ele>
        <time>2013-04-23T11:41:01Z</time>
      </trkpt>
      <trkpt lat="45.48975" lon="4.81714">
        <ele>153</ele>
        <time>2013-04-23T11:42:10Z</time>
      </trkpt>
      <trkpt lat="45.48793" lon="4.8154">
        <ele>153</ele>
        <time>2013-04-23T11:43:23Z</time>
      </trkpt>
      <trkpt lat="45.48699" lon="4.81465">
        <ele>127</ele>
        <time>2013-04-23T12:07:04Z</time>
      </trkpt>
      <trkpt lat="45.48645" lon="4.81359">
        <ele>138</ele>
        <time>2013-04-23T12:07:21Z</time>
      </trkpt>
      <trkpt lat="45.48615" lon="4.813">
        <ele>141</ele>
        <time>2013-04-23T12:07:30Z</time>
      </trkpt>
      <trkpt lat="45.48597" lon="4.81249">
        <ele>143</ele>
        <time>2013-04-23T12:07:38Z</time>
      </trkpt>
      <trkpt lat="45.48682" lon="4.81146">
        <ele>148</ele>
        <time>2013-04-23T12:07:58Z</time>
      </trkpt>
      <trkpt lat="45.48637" lon="4.81041">
        <ele>151</ele>
        <time>2013-04-23T12:08:14Z</time>
      </trkpt>
      <trkpt lat="45.48636" lon="4.80952">
        <ele>154</ele>
        <time>2013-04-23T12:08:25Z</time>
      </trkpt>
      <trkpt lat="45.48656" lon="4.80756">
        <ele>154</ele>
        <time>2013-04-23T12:08:47Z</time>
      </trkpt>
      <trkpt lat="45.48642" lon="4.80672">
        <ele>154</ele>
        <time>2013-04-23T12:08:57Z</time>
      </trkpt>
      <trkpt lat="45.48448" lon="4.80095">
        <ele>152</ele>
        <time>2013-04-23T12:10:18Z</time>
      </trkpt>
      <trkpt lat="45.48329" lon="4.79843">
        <ele>151</ele>
        <time>2013-04-23T12:11:03Z</time>
      </trkpt>
      <trkpt lat="45.48377" lon="4.79446">
        <ele>153</ele>
        <time>2013-04-23T12:12:05Z</time>
      </trkpt>
      <trkpt lat="45.48334" lon="4.79246">
        <ele>153</ele>
        <time>2013-04-23T12:12:37Z</time>
      </trkpt>
      <trkpt lat="45.48284" lon="4.78871">
        <ele>153</ele>
        <time>2013-04-23T12:13:29Z</time>
      </trkpt>
      <trkpt lat="45.48057" lon="4.78827">
        <ele>151</ele>
        <time>2013-04-23T12:15:07Z</time>
      </trkpt>
      <trkpt lat="45.48078" lon="4.78725">
        <ele>151</ele>
        <time>2013-04-23T12:15:20Z</time>
      </trkpt>
      <trkpt lat="45.48067" lon="4.78632">
        <ele>151</ele>
        <time>2013-04-23T12:15:32Z</time>
      </trkpt>
      <trkpt lat="45.48045" lon="4.78566">
        <ele>151</ele>
        <time>2013-04-23T12:15:41Z</time>
      </trkpt>
      <trkpt lat="45.47946" lon="4.78422">
        <ele>151</ele>
        <time>2013-04-23T12:16:09Z</time>
      </trkpt>
      <trkpt lat="45.47959" lon="4.78369">
        <ele>151</ele>
        <time>2013-04-23T12:18:25Z</time>
      </trkpt>
      <trkpt lat="45.47933" lon="4.78304">
        <ele>151</ele>
        <time>2013-04-23T12:18:37Z</time>
      </trkpt>
      <trkpt lat="45.47847" lon="4.7824">
        <ele>151</ele>
        <time>2013-04-23T12:18:56Z</time>
      </trkpt>
      <trkpt lat="45.47677" lon="4.78188">
        <ele>151</ele>
        <time>2013-04-23T12:19:27Z</time>
      </trkpt>
      <trkpt lat="45.47667" lon="4.78173">
        <ele>151</ele>
        <time>2013-04-23T12:19:30Z</time>
      </trkpt>
      <trkpt lat="45.47671" lon="4.78101">
        <ele>151</ele>
        <time>2013-04-23T12:19:40Z</time>
      </trkpt>
      <trkpt lat="45.47641" lon="4.78075">
        <ele>151</ele>
        <time>2013-04-23T12:19:47Z</time>
      </trkpt>
      <trkpt lat="45.47426" lon="4.77929">
        <ele>149</ele>
        <time>2013-04-23T12:21:07Z</time>
      </trkpt>
      <trkpt lat="45.47226" lon="4.77819">
        <ele>151</ele>
        <time>2013-04-23T12:23:13Z</time>
      </trkpt>
      <trkpt lat="45.47139" lon="4.77755">
        <ele>151</ele>
        <time>2013-04-23T12:23:25Z</time>
      </trkpt>
      <trkpt lat="45.47091" lon="4.77785">
        <ele>153</ele>
        <time>2013-04-23T12:23:34Z</time>
      </trkpt>
      <trkpt lat="45.47079" lon="4.77787">
        <ele>153</ele>
        <time>2013-04-23T12:23:38Z</time>
      </trkpt>
      <trkpt lat="45.47062" lon="4.77754">
        <ele>153</ele>
        <time>2013-04-23T12:24:38Z</time>
      </trkpt>
      <trkpt lat="45.46969" lon="4.77858">
        <ele>151</ele>
        <time>2013-04-23T12:25:28Z</time>
      </trkpt>
      <trkpt lat="45.4675" lon="4.77892">
        <ele>151</ele>
        <time>2013-04-23T12:26:20Z</time>
      </trkpt>
      <trkpt lat="45.46598" lon="4.77716">
        <ele>151</ele>
        <time>2013-04-23T12:27:48Z</time>
      </trkpt>
      <trkpt lat="45.46499" lon="4.77865">
        <ele>151</ele>
        <time>2013-04-23T12:28:37Z</time>
      </trkpt>
      <trkpt lat="45.46485" lon="4.77934">
        <ele>151</ele>
        <time>2013-04-23T12:28:51Z</time>
      </trkpt>
      <trkpt lat="45.46461" lon="4.77941">
        <ele>151</ele>
        <time>2013-04-23T12:29:00Z</time>
      </trkpt>
      <trkpt lat="45.46376" lon="4.77917">
        <ele>151</ele>
        <time>2013-04-23T12:29:19Z</time>
      </trkpt>
      <trkpt lat="45.46278" lon="4.77861">
        <ele>151</ele>
        <time>2013-04-23T12:29:40Z</time>
      </trkpt>
      <trkpt lat="45.46133" lon="4.77717">
        <ele>151</ele>
        <time>2013-04-23T12:30:13Z</time>
      </trkpt>
      <trkpt lat="45.46052" lon="4.77658">
        <ele>151</ele>
        <time>2013-04-23T12:30:29Z</time>
      </trkpt>
      <trkpt lat="45.46018" lon="4.77455">
        <ele>151</ele>
        <time>2013-04-23T12:31:01Z</time>
      </trkpt>
      <trkpt lat="45.45928" lon="4.77215">
        <ele>151</ele>
        <time>2013-04-23T12:31:53Z</time>
      </trkpt>
      <trkpt lat="45.45812" lon="4.77129">
        <ele>151</ele>
        <time>2013-04-23T12:32:36Z</time>
      </trkpt>
      <trkpt lat="45.45783" lon="4.77086">
        <ele>151</ele>
        <time>2013-04-23T12:32:49Z</time>
      </trkpt>
      <trkpt lat="45.45793" lon="4.76944">
        <ele>151</ele>
        <time>2013-04-23T12:33:45Z</time>
      </trkpt>
      <trkpt lat="45.45782" lon="4.76811">
        <ele>149</ele>
        <time>2013-04-23T12:35:54Z</time>
      </trkpt>
      <trkpt lat="45.45829" lon="4.765">
        <ele>149</ele>
        <time>2013-04-23T12:37:47Z</time>
      </trkpt>
      <trkpt lat="45.45794" lon="4.76163">
        <ele>149</ele>
        <time>2013-04-23T12:40:31Z</time>
      </trkpt>
      <trkpt lat="45.45824" lon="4.76161">
        <ele>149</ele>
        <time>2013-04-23T12:41:47Z</time>
      </trkpt>
      <trkpt lat="45.4587" lon="4.7608">
        <ele>151</ele>
        <time>2013-04-23T12:42:17Z</time>
      </trkpt>
      <trkpt lat="45.4583" lon="4.75985">
        <ele>151</ele>
        <time>2013-04-23T12:42:44Z</time>
      </trkpt>
      <trkpt lat="45.45762" lon="4.75991">
        <ele>151</ele>
        <time>2013-04-23T12:43:16Z</time>
      </trkpt>
      <trkpt lat="45.45715" lon="4.75935">
        <ele>151</ele>
        <time>2013-04-23T12:44:02Z</time>
      </trkpt>
      <trkpt lat="45.45674" lon="4.75738">
        <ele>151</ele>
        <time>2013-04-23T12:44:40Z</time>
      </trkpt>
      <trkpt lat="45.45591" lon="4.75531">
        <ele>151</ele>
        <time>2013-04-23T12:45:25Z</time>
      </trkpt>
      <trkpt lat="45.45543" lon="4.75471">
        <ele>151</ele>
        <time>2013-04-23T12:45:40Z</time>
      </trkpt>
      <trkpt lat="45.45496" lon="4.75436">
        <ele>151</ele>
        <time>2013-04-23T12:45:52Z</time>
      </trkpt>
      <trkpt lat="45.4542" lon="4.75419">
        <ele>151</ele>
        <time>2013-04-23T12:46:13Z</time>
      </trkpt>
      <trkpt lat="45.45011" lon="4.75373">
        <ele>151</ele>
        <time>2013-04-23T12:47:42Z</time>
      </trkpt>
      <trkpt lat="45.44831" lon="4.75374">
        <ele>151</ele>
        <time>2013-04-23T12:48:17Z</time>
      </trkpt>
      <trkpt lat="45.44655" lon="4.75422">
        <ele>151</ele>
        <time>2013-04-23T12:48:49Z</time>
      </trkpt>
      <trkpt lat="45.44498" lon="4.75491">
        <ele>151</ele>
        <time>2013-04-23T12:49:54Z</time>
      </trkpt>
      <trkpt lat="45.44392" lon="4.75499">
        <ele>151</ele>
        <time>2013-04-23T12:50:11Z</time>
      </trkpt>
      <trkpt lat="45.44292" lon="4.75564">
        <ele>151</ele>
        <time>2013-04-23T12:50:27Z</time>
      </trkpt>
      <trkpt lat="45.4415" lon="4.75534">
        <ele>151</ele>
        <time>2013-04-23T12:50:51Z</time>
      </trkpt>
      <trkpt lat="45.44126" lon="4.75552">
        <ele>151</ele>
        <time>2013-04-23T12:50:56Z</time>
      </trkpt>
      <trkpt lat="45.44069" lon="4.75653">
        <ele>151</ele>
        <time>2013-04-23T12:51:18Z</time>
      </trkpt>
      <trkpt lat="45.44018" lon="4.75676">
        <ele>151</ele>
        <time>2013-04-23T12:51:32Z</time>
      </trkpt>
      <trkpt lat="45.43831" lon="4.75645">
        <ele>151</ele>
        <time>2013-04-23T12:52:03Z</time>
      </trkpt>
      <trkpt lat="45.43755" lon="4.7568">
        <ele>151</ele>
        <time>2013-04-23T12:52:16Z</time>
      </trkpt>
      <trkpt lat="45.43675" lon="4.75752">
        <ele>151</ele>
        <time>2013-04-23T12:52:32Z</time>
      </trkpt>
      <trkpt lat="45.43587" lon="4.75755">
        <ele>151</ele>
        <time>2013-04-23T12:52:46Z</time>
      </trkpt>
      <trkpt lat="45.43501" lon="4.75729">
        <ele>151</ele>
        <time>2013-04-23T12:52:59Z</time>
      </trkpt>
      <trkpt lat="45.43446" lon="4.75697">
        <ele>151</ele>
        <time>2013-04-23T12:53:09Z</time>
      </trkpt>
      <trkpt lat="45.43398" lon="4.75631">
        <ele>151</ele>
        <time>2013-04-23T12:53:21Z</time>
      </trkpt>
      <trkpt lat="45.43257" lon="4.75537">
        <ele>151</ele>
        <time>2013-04-23T12:53:50Z</time>
      </trkpt>
      <trkpt lat="45.4316" lon="4.75441">
        <ele>151</ele>
        <time>2013-04-23T12:54:43Z</time>
      </trkpt>
      <trkpt lat="45.42931" lon="4.7509">
        <ele>151</ele>
        <time>2013-04-23T12:55:51Z</time>
      </trkpt>
      <trkpt lat="45.42289" lon="4.74311">
        <ele>151</ele>
        <time>2013-04-23T12:58:01Z</time>
      </trkpt>
      <trkpt lat="45.42212" lon="4.74233">
        <ele>151</ele>
        <time>2013-04-23T12:58:15Z</time>
      </trkpt>
      <trkpt lat="45.42092" lon="4.74147">
        <ele>151</ele>
        <time>2013-04-23T12:58:35Z</time>
      </trkpt>
      <trkpt lat="45.41873" lon="4.74054">
        <ele>151</ele>
        <time>2013-04-23T12:59:09Z</time>
      </trkpt>
      <trkpt lat="45.41631" lon="4.7401">
        <ele>151</ele>
        <time>2013-04-23T12:59:47Z</time>
      </trkpt>
      <trkpt lat="45.41494" lon="4.74015">
        <ele>151</ele>
        <time>2013-04-23T13:00:10Z</time>
      </trkpt>
      <trkpt lat="45.4148" lon="4.74">
        <ele>151</ele>
        <time>2013-04-23T13:00:13Z</time>
      </trkpt>
      <trkpt lat="45.41443" lon="4.73767">
        <ele>151</ele>
        <time>2013-04-23T13:00:45Z</time>
      </trkpt>
      <trkpt lat="45.41421" lon="4.7375">
        <ele>151</ele>
        <time>2013-04-23T13:00:53Z</time>
      </trkpt>
      <trkpt lat="45.41406" lon="4.73765">
        <ele>151</ele>
        <time>2013-04-23T13:01:01Z</time>
      </trkpt>
      <trkpt lat="45.41423" lon="4.73866">
        <ele>151</ele>
        <time>2013-04-23T13:01:15Z</time>
      </trkpt>
      <trkpt lat="45.41421" lon="4.7398">
        <ele>151</ele>
        <time>2013-04-23T13:01:29Z</time>
      </trkpt>
      <trkpt lat="45.41399" lon="4.74027">
        <ele>151</ele>
        <time>2013-04-23T13:01:38Z</time>
      </trkpt>
      <trkpt lat="45.41236" lon="4.74057">
        <ele>151</ele>
        <time>2013-04-23T13:02:08Z</time>
      </trkpt>
      <trkpt lat="45.41221" lon="4.74007">
        <ele>151</ele>
        <time>2013-04-23T13:02:15Z</time>
      </trkpt>
      <trkpt lat="45.41202" lon="4.73994">
        <ele>151</ele>
        <time>2013-04-23T13:02:19Z</time>
      </trkpt>
      <trkpt lat="45.41019" lon="4.74042">
        <ele>149</ele>
        <time>2013-04-23T13:02:49Z</time>
      </trkpt>
      <trkpt lat="45.40817" lon="4.74149">
        <ele>149</ele>
        <time>2013-04-23T13:03:22Z</time>
      </trkpt>
      <trkpt lat="45.40511" lon="4.74359">
        <ele>147</ele>
        <time>2013-04-23T13:04:14Z</time>
      </trkpt>
      <trkpt lat="45.40103" lon="4.74756">
        <ele>147</ele>
        <time>2013-04-23T13:05:34Z</time>
      </trkpt>
      <trkpt lat="45.40108" lon="4.74828">
        <ele>148</ele>
        <time>2013-04-23T13:05:44Z</time>
      </trkpt>
      <trkpt lat="45.40071" lon="4.74888">
        <ele>151</ele>
        <time>2013-04-23T13:05:56Z</time>
      </trkpt>
      <trkpt lat="45.39735" lon="4.75192">
        <ele>151</ele>
        <time>2013-04-23T13:07:07Z</time>
      </trkpt>
      <trkpt lat="45.39632" lon="4.75229">
        <ele>151</ele>
        <time>2013-04-23T13:07:25Z</time>
      </trkpt>
      <trkpt lat="45.39574" lon="4.75269">
        <ele>151</ele>
        <time>2013-04-23T13:07:36Z</time>
      </trkpt>
      <trkpt lat="45.39534" lon="4.75317">
        <ele>151</ele>
        <time>2013-04-23T13:07:45Z</time>
      </trkpt>
      <trkpt lat="45.3934" lon="4.75391">
        <ele>151</ele>
        <time>2013-04-23T13:08:19Z</time>
      </trkpt>
      <trkpt lat="45.39246" lon="4.75461">
        <ele>151</ele>
        <time>2013-04-23T13:08:37Z</time>
      </trkpt>
      <trkpt lat="45.39127" lon="4.75483">
        <ele>151</ele>
        <time>2013-04-23T13:08:59Z</time>
      </trkpt>
      <trkpt lat="45.39007" lon="4.75548">
        <ele>151</ele>
        <time>2013-04-23T13:09:21Z</time>
      </trkpt>
      <trkpt lat="45.38695" lon="4.75599">
        <ele>151</ele>
        <time>2013-04-23T13:10:14Z</time>
      </trkpt>
      <trkpt lat="45.38508" lon="4.7556">
        <ele>151</ele>
        <time>2013-04-23T13:10:46Z</time>
      </trkpt>
      <trkpt lat="45.38303" lon="4.75427">
        <ele>151</ele>
        <time>2013-04-23T13:11:24Z</time>
      </trkpt>
      <trkpt lat="45.3827" lon="4.7542">
        <ele>151</ele>
        <time>2013-04-23T13:11:30Z</time>
      </trkpt>
      <trkpt lat="45.3814" lon="4.75523">
        <ele>151</ele>
        <time>2013-04-23T13:12:02Z</time>
      </trkpt>
      <trkpt lat="45.38132" lon="4.75629">
        <ele>151</ele>
        <time>2013-04-23T13:13:19Z</time>
      </trkpt>
      <trkpt lat="45.38111" lon="4.75587">
        <ele>153</ele>
        <time>2013-04-23T13:14:03Z</time>
      </trkpt>
      <trkpt lat="45.38085" lon="4.75666">
        <ele>155</ele>
        <time>2013-04-23T13:14:52Z</time>
      </trkpt>
      <trkpt lat="45.38036" lon="4.75953">
        <ele>155</ele>
        <time>2013-04-23T13:16:22Z</time>
      </trkpt>
      <trkpt lat="45.38019" lon="4.75988">
        <ele>155</ele>
        <time>2013-04-23T13:16:27Z</time>
      </trkpt>
      <trkpt lat="45.37998" lon="4.76013">
        <ele>154</ele>
        <time>2013-04-23T13:16:31Z</time>
      </trkpt>
      <trkpt lat="45.37557" lon="4.76275">
        <ele>149</ele>
        <time>2013-04-23T13:17:37Z</time>
      </trkpt>
      <trkpt lat="45.37281" lon="4.7648">
        <ele>149</ele>
        <time>2013-04-23T13:18:22Z</time>
      </trkpt>
      <trkpt lat="45.35697" lon="4.77922">
        <ele>146</ele>
        <time>2013-04-23T13:23:48Z</time>
      </trkpt>
      <trkpt lat="45.35509" lon="4.78058">
        <ele>146</ele>
        <time>2013-04-23T13:24:26Z</time>
      </trkpt>
      <trkpt lat="45.35338" lon="4.78137">
        <ele>146</ele>
        <time>2013-04-23T13:25:01Z</time>
      </trkpt>
      <trkpt lat="45.35298" lon="4.78208">
        <ele>146</ele>
        <time>2013-04-23T13:25:20Z</time>
      </trkpt>
      <trkpt lat="45.35274" lon="4.78216">
        <ele>146</ele>
        <time>2013-04-23T13:25:25Z</time>
      </trkpt>
      <trkpt lat="45.35232" lon="4.78177">
        <ele>146</ele>
        <time>2013-04-23T13:25:34Z</time>
      </trkpt>
      <trkpt lat="45.35184" lon="4.78175">
        <ele>146</ele>
        <time>2013-04-23T13:25:44Z</time>
      </trkpt>
      <trkpt lat="45.34092" lon="4.78346">
        <ele>146</ele>
        <time>2013-04-23T13:28:49Z</time>
      </trkpt>
      <trkpt lat="45.34064" lon="4.78357">
        <ele>146</ele>
        <time>2013-04-23T13:28:55Z</time>
      </trkpt>
      <trkpt lat="45.34046" lon="4.78432">
        <ele>149</ele>
        <time>2013-04-23T13:29:11Z</time>
      </trkpt>
      <trkpt lat="45.34017" lon="4.78451">
        <ele>151</ele>
        <time>2013-04-23T13:29:59Z</time>
      </trkpt>
      <trkpt lat="45.33987" lon="4.78429">
        <ele>151</ele>
        <time>2013-04-23T13:30:50Z</time>
      </trkpt>
      <trkpt lat="45.33978" lon="4.78374">
        <ele>149</ele>
        <time>2013-04-23T13:30:57Z</time>
      </trkpt>
      <trkpt lat="45.33962" lon="4.78364">
        <ele>147</ele>
        <time>2013-04-23T13:31:00Z</time>
      </trkpt>
      <trkpt lat="45.32962" lon="4.78526">
        <ele>145</ele>
        <time>2013-04-23T13:33:58Z</time>
      </trkpt>
      <trkpt lat="45.32958" lon="4.7852">
        <ele>147</ele>
        <time>2013-04-23T13:34:03Z</time>
      </trkpt>
      <trkpt lat="45.32885" lon="4.78373">
        <ele>147</ele>
        <time>2013-04-23T13:34:53Z</time>
      </trkpt>
      <trkpt lat="45.3282" lon="4.78142">
        <ele>145</ele>
        <time>2013-04-23T13:40:52Z</time>
      </trkpt>
      <trkpt lat="45.32805" lon="4.7789">
        <ele>145</ele>
        <time>2013-04-23T13:41:29Z</time>
      </trkpt>
      <trkpt lat="45.32864" lon="4.77358">
        <ele>145</ele>
        <time>2013-04-23T13:42:42Z</time>
      </trkpt>
      <trkpt lat="45.32836" lon="4.77166">
        <ele>142</ele>
        <time>2013-04-23T13:43:09Z</time>
      </trkpt>
      <trkpt lat="45.32965" lon="4.77162">
        <ele>142</ele>
        <time>2013-04-23T13:43:37Z</time>
      </trkpt>
      <trkpt lat="45.33002" lon="4.76972">
        <ele>142</ele>
        <time>2013-04-23T13:44:10Z</time>
      </trkpt>
      <trkpt lat="45.32787" lon="4.76798">
        <ele>142</ele>
        <time>2013-04-23T13:44:58Z</time>
      </trkpt>
      <trkpt lat="45.32731" lon="4.76719">
        <ele>142</ele>
        <time>2013-04-23T13:46:05Z</time>
      </trkpt>
      <trkpt lat="45.32604" lon="4.76769">
        <ele>142</ele>
        <time>2013-04-23T13:46:36Z</time>
      </trkpt>
      <trkpt lat="45.32437" lon="4.76801">
        <ele>142</ele>
        <time>2013-04-23T13:47:09Z</time>
      </trkpt>
      <trkpt lat="45.32033" lon="4.76753">
        <ele>142</ele>
        <time>2013-04-23T13:48:29Z</time>
      </trkpt>
      <trkpt lat="45.32004" lon="4.76762">
        <ele>142</ele>
        <time>2013-04-23T13:48:35Z</time>
      </trkpt>
      <trkpt lat="45.31952" lon="4.76829">
        <ele>142</ele>
        <time>2013-04-23T13:48:51Z</time>
      </trkpt>
      <trkpt lat="45.31932" lon="4.76832">
        <ele>142</ele>
        <time>2013-04-23T13:49:05Z</time>
      </trkpt>
      <trkpt lat="45.31936" lon="4.76817">
        <ele>142</ele>
        <time>2013-04-23T13:49:17Z</time>
      </trkpt>
      <trkpt lat="45.31881" lon="4.76813">
        <ele>134</ele>
      </trkpt>
      <trkpt lat="45.31881" lon="4.76821">
        <ele>140</ele>
        <time>2013-04-23T13:55:19Z</time>
      </trkpt>
      <trkpt lat="45.31878" lon="4.76837">
        <ele>140</ele>
        <time>2013-04-23T13:55:20Z</time>
      </trkpt>
      <trkpt lat="45.31872" lon="4.76849">
        <ele>140</ele>
        <time>2013-04-23T13:55:21Z</time>
      </trkpt>
      <trkpt lat="45.31868" lon="4.7686">
        <ele>140</ele>
        <time>2013-04-23T13:55:25Z</time>
      </trkpt>
      <trkpt lat="45.31858" lon="4.76872">
        <ele>140</ele>
        <time>2013-04-23T13:55:32Z</time>
      </trkpt>
      <trkpt lat="45.31841" lon="4.76887">
        <ele>140</ele>
        <time>2013-04-23T13:55:40Z</time>
      </trkpt>
      <trkpt lat="45.31833" lon="4.76902">
        <ele>140</ele>
        <time>2013-04-23T13:55:46Z</time>
      </trkpt>
      <trkpt lat="45.31824" lon="4.76918">
        <ele>140</ele>
        <time>2013-04-23T13:55:51Z</time>
      </trkpt>
      <trkpt lat="45.31809" lon="4.76946">
        <ele>140</ele>
        <time>2013-04-23T13:55:58Z</time>
      </trkpt>
      <trkpt lat="45.31781" lon="4.76999">
        <ele>140</ele>
        <time>2013-04-23T13:56:58Z</time>
      </trkpt>
      <trkpt lat="45.31773" lon="4.77017">
        <ele>140</ele>
        <time>2013-04-23T13:57:04Z</time>
      </trkpt>
      <trkpt lat="45.31758" lon="4.77041">
        <ele>140</ele>
        <time>2013-04-23T13:57:11Z</time>
      </trkpt>
      <trkpt lat="45.31741" lon="4.77072">
        <ele>140</ele>
        <time>2013-04-23T13:57:18Z</time>
      </trkpt>
      <trkpt lat="45.3172" lon="4.77109">
        <ele>140</ele>
        <time>2013-04-23T13:57:27Z</time>
      </trkpt>
      <trkpt lat="45.31706" lon="4.7713">
        <ele>140</ele>
        <time>2013-04-23T13:57:32Z</time>
      </trkpt>
      <trkpt lat="45.31703" lon="4.77134">
        <ele>140</ele>
        <time>2013-04-23T13:57:33Z</time>
      </trkpt>
      <trkpt lat="45.3168" lon="4.77175">
        <ele>140</ele>
        <time>2013-04-23T13:57:42Z</time>
      </trkpt>
      <trkpt lat="45.31664" lon="4.77211">
        <ele>140</ele>
        <time>2013-04-23T13:57:50Z</time>
      </trkpt>
      <trkpt lat="45.31647" lon="4.77243">
        <ele>140</ele>
        <time>2013-04-23T13:57:57Z</time>
      </trkpt>
      <trkpt lat="45.31624" lon="4.77281">
        <ele>140</ele>
        <time>2013-04-23T13:58:05Z</time>
      </trkpt>
      <trkpt lat="45.31599" lon="4.77326">
        <ele>140</ele>
        <time>2013-04-23T13:58:14Z</time>
      </trkpt>
      <trkpt lat="45.31575" lon="4.77367">
        <ele>140</ele>
        <time>2013-04-23T13:58:22Z</time>
      </trkpt>
      <trkpt lat="45.31549" lon="4.7741">
        <ele>140</ele>
        <time>2013-04-23T13:58:30Z</time>
      </trkpt>
      <trkpt lat="45.3152" lon="4.77461">
        <ele>140</ele>
        <time>2013-04-23T13:58:39Z</time>
      </trkpt>
      <trkpt lat="45.31517" lon="4.77467">
        <ele>140</ele>
        <time>2013-04-23T13:58:40Z</time>
      </trkpt>
      <trkpt lat="45.31492" lon="4.7751">
        <ele>140</ele>
        <time>2013-04-23T13:58:48Z</time>
      </trkpt>
      <trkpt lat="45.31428" lon="4.77624">
        <ele>140</ele>
        <time>2013-04-23T13:59:53Z</time>
      </trkpt>
      <trkpt lat="45.31417" lon="4.77643">
        <ele>140</ele>
        <time>2013-04-23T13:59:57Z</time>
      </trkpt>
      <trkpt lat="45.31413" lon="4.77655">
        <ele>140</ele>
        <time>2013-04-23T13:59:59Z</time>
      </trkpt>
      <trkpt lat="45.31397" lon="4.77708">
        <ele>140</ele>
        <time>2013-04-23T14:00:08Z</time>
      </trkpt>
      <trkpt lat="45.31384" lon="4.77752">
        <ele>140</ele>
        <time>2013-04-23T14:00:16Z</time>
      </trkpt>
      <trkpt lat="45.31369" lon="4.77792">
        <ele>140</ele>
        <time>2013-04-23T14:00:25Z</time>
      </trkpt>
      <trkpt lat="45.31365" lon="4.77804">
        <ele>140</ele>
        <time>2013-04-23T14:00:49Z</time>
      </trkpt>
      <trkpt lat="45.31355" lon="4.7782">
        <ele>140</ele>
        <time>2013-04-23T14:00:53Z</time>
      </trkpt>
      <trkpt lat="45.31349" lon="4.77827">
        <ele>140</ele>
        <time>2013-04-23T14:00:55Z</time>
      </trkpt>
      <trkpt lat="45.3134" lon="4.77837">
        <ele>140</ele>
        <time>2013-04-23T14:00:58Z</time>
      </trkpt>
      <trkpt lat="45.31321" lon="4.77853">
        <ele>140</ele>
        <time>2013-04-23T14:01:04Z</time>
      </trkpt>
      <trkpt lat="45.31298" lon="4.77874">
        <ele>140</ele>
        <time>2013-04-23T14:01:12Z</time>
      </trkpt>
      <trkpt lat="45.31296" lon="4.77886">
        <ele>140</ele>
        <time>2013-04-23T14:01:16Z</time>
      </trkpt>
      <trkpt lat="45.31303" lon="4.77906">
        <ele>140</ele>
        <time>2013-04-23T14:01:22Z</time>
      </trkpt>
      <trkpt lat="45.31296" lon="4.77932">
        <ele>140</ele>
        <time>2013-04-23T14:01:25Z</time>
      </trkpt>
      <trkpt lat="45.31293" lon="4.77936">
        <ele>140</ele>
        <time>2013-04-23T14:01:26Z</time>
      </trkpt>
      <trkpt lat="45.31279" lon="4.77955">
        <ele>140</ele>
        <time>2013-04-23T14:01:31Z</time>
      </trkpt>
      <trkpt lat="45.31257" lon="4.77987">
        <ele>140</ele>
        <time>2013-04-23T14:01:38Z</time>
      </trkpt>
      <trkpt lat="45.31234" lon="4.78019">
        <ele>140</ele>
        <time>2013-04-23T14:01:45Z</time>
      </trkpt>
      <trkpt lat="45.31206" lon="4.7806">
        <ele>140</ele>
        <time>2013-04-23T14:01:54Z</time>
      </trkpt>
      <trkpt lat="45.31199" lon="4.78079">
        <ele>140</ele>
        <time>2013-04-23T14:01:57Z</time>
      </trkpt>
      <trkpt lat="45.31194" lon="4.78096">
        <ele>140</ele>
        <time>2013-04-23T14:02:00Z</time>
      </trkpt>
      <trkpt lat="45.31187" lon="4.78125">
        <ele>140</ele>
        <time>2013-04-23T14:02:33Z</time>
      </trkpt>
      <trkpt lat="45.31179" lon="4.78151">
        <ele>140</ele>
        <time>2013-04-23T14:02:39Z</time>
      </trkpt>
      <trkpt lat="45.31173" lon="4.78169">
        <ele>140</ele>
        <time>2013-04-23T14:04:08Z</time>
      </trkpt>
      <trkpt lat="45.3116" lon="4.78211">
        <ele>140</ele>
        <time>2013-04-23T14:04:16Z</time>
      </trkpt>
      <trkpt lat="45.31145" lon="4.78251">
        <ele>140</ele>
        <time>2013-04-23T14:04:23Z</time>
      </trkpt>
      <trkpt lat="45.31134" lon="4.78288">
        <ele>140</ele>
        <time>2013-04-23T14:04:29Z</time>
      </trkpt>
      <trkpt lat="45.3113" lon="4.783">
        <ele>140</ele>
        <time>2013-04-23T14:04:31Z</time>
      </trkpt>
      <trkpt lat="45.31127" lon="4.78312">
        <ele>140</ele>
        <time>2013-04-23T14:04:33Z</time>
      </trkpt>
      <trkpt lat="45.31118" lon="4.78339">
        <ele>140</ele>
        <time>2013-04-23T14:04:38Z</time>
      </trkpt>
      <trkpt lat="45.31113" lon="4.78357">
        <ele>140</ele>
        <time>2013-04-23T14:04:41Z</time>
      </trkpt>
      <trkpt lat="45.31107" lon="4.78376">
        <ele>140</ele>
        <time>2013-04-23T14:04:44Z</time>
      </trkpt>
      <trkpt lat="45.311" lon="4.78403">
        <ele>140</ele>
        <time>2013-04-23T14:04:48Z</time>
      </trkpt>
      <trkpt lat="45.31098" lon="4.78424">
        <ele>140</ele>
        <time>2013-04-23T14:04:51Z</time>
      </trkpt>
      <trkpt lat="45.31101" lon="4.78455">
        <ele>140</ele>
        <time>2013-04-23T14:04:56Z</time>
      </trkpt>
      <trkpt lat="45.31103" lon="4.78466">
        <ele>140</ele>
        <time>2013-04-23T14:04:57Z</time>
      </trkpt>
      <trkpt lat="45.31109" lon="4.78478">
        <ele>140</ele>
        <time>2013-04-23T14:04:59Z</time>
      </trkpt>
      <trkpt lat="45.31097" lon="4.78494">
        <ele>140</ele>
        <time>2013-04-23T14:05:02Z</time>
      </trkpt>
      <trkpt lat="45.31082" lon="4.78513">
        <ele>140</ele>
        <time>2013-04-23T14:05:06Z</time>
      </trkpt>
      <trkpt lat="45.31078" lon="4.78518">
        <ele>140</ele>
        <time>2013-04-23T14:05:07Z</time>
      </trkpt>
      <trkpt lat="45.31048" lon="4.78556">
        <ele>140</ele>
        <time>2013-04-23T14:05:15Z</time>
      </trkpt>
      <trkpt lat="45.31046" lon="4.78561">
        <ele>140</ele>
        <time>2013-04-23T14:05:16Z</time>
      </trkpt>
      <trkpt lat="45.31038" lon="4.78583">
        <ele>140</ele>
        <time>2013-04-23T14:05:20Z</time>
      </trkpt>
      <trkpt lat="45.31031" lon="4.78606">
        <ele>140</ele>
        <time>2013-04-23T14:05:25Z</time>
      </trkpt>
      <trkpt lat="45.31031" lon="4.78606">
        <ele>140</ele>
        <time>2013-04-23T14:05:28Z</time>
      </trkpt>
      <trkpt lat="45.31031" lon="4.78606">
        <ele>140</ele>
        <time>2013-04-23T14:05:42Z</time>
      </trkpt>
      <trkpt lat="45.31031" lon="4.78606">
        <ele>140</ele>
        <time>2013-04-23T14:05:54Z</time>
      </trkpt>
      <trkpt lat="45.31029" lon="4.78606">
        <ele>140</ele>
        <time>2013-04-23T14:05:57Z</time>
      </trkpt>
      <trkpt lat="45.31029" lon="4.78606">
        <ele>140</ele>
      </trkpt>
      <trkpt lat="45.31026" lon="4.78605">
        <ele>140</ele>
        <time>2013-04-23T14:05:59Z</time>
      </trkpt>
      <trkpt lat="45.31018" lon="4.78599">
        <ele>140</ele>
        <time>2013-04-23T14:06:02Z</time>
      </trkpt>
      <trkpt lat="45.31015" lon="4.78598">
        <ele>140</ele>
        <time>2013-04-23T14:06:03Z</time>
      </trkpt>
      <trkpt lat="45.31011" lon="4.78601">
        <ele>140</ele>
        <time>2013-04-23T14:06:04Z</time>
      </trkpt>
      <trkpt lat="45.31007" lon="4.78605">
        <ele>140</ele>
        <time>2013-04-23T14:06:06Z</time>
      </trkpt>
      <trkpt lat="45.31007" lon="4.78605">
        <ele>140</ele>
        <time>2013-04-23T14:06:09Z</time>
      </trkpt>
      <trkpt lat="45.31007" lon="4.78605">
        <ele>140</ele>
        <time>2013-04-23T14:06:24Z</time>
      </trkpt>
      <trkpt lat="45.31002" lon="4.78612">
        <ele>140</ele>
        <time>2013-04-23T14:06:33Z</time>
      </trkpt>
      <trkpt lat="45.30986" lon="4.78636">
        <ele>140</ele>
        <time>2013-04-23T14:06:38Z</time>
      </trkpt>
      <trkpt lat="45.30953" lon="4.78688">
        <ele>140</ele>
        <time>2013-04-23T14:06:48Z</time>
      </trkpt>
      <trkpt lat="45.30932" lon="4.78718">
        <ele>140</ele>
        <time>2013-04-23T14:06:54Z</time>
      </trkpt>
      <trkpt lat="45.30926" lon="4.78728">
        <ele>140</ele>
        <time>2013-04-23T14:06:56Z</time>
      </trkpt>
      <trkpt lat="45.309" lon="4.7876">
        <ele>140</ele>
        <time>2013-04-23T14:07:05Z</time>
      </trkpt>
      <trkpt lat="45.30887" lon="4.78774">
        <ele>140</ele>
        <time>2013-04-23T14:07:12Z</time>
      </trkpt>
      <trkpt lat="45.30865" lon="4.78826">
        <ele>140</ele>
        <time>2013-04-23T14:07:16Z</time>
      </trkpt>
      <trkpt lat="45.30859" lon="4.78845">
        <ele>140</ele>
        <time>2013-04-23T14:07:19Z</time>
      </trkpt>
      <trkpt lat="45.30839" lon="4.78887">
        <ele>140</ele>
        <time>2013-04-23T14:07:26Z</time>
      </trkpt>
      <trkpt lat="45.30833" lon="4.78897">
        <ele>140</ele>
        <time>2013-04-23T14:07:28Z</time>
      </trkpt>
      <trkpt lat="45.3082" lon="4.78916">
        <ele>140</ele>
        <time>2013-04-23T14:07:32Z</time>
      </trkpt>
      <trkpt lat="45.308" lon="4.78943">
        <ele>140</ele>
        <time>2013-04-23T14:07:38Z</time>
      </trkpt>
      <trkpt lat="45.30779" lon="4.78977">
        <ele>140</ele>
        <time>2013-04-23T14:07:45Z</time>
      </trkpt>
      <trkpt lat="45.30777" lon="4.78984">
        <ele>140</ele>
        <time>2013-04-23T14:07:46Z</time>
      </trkpt>
      <trkpt lat="45.30769" lon="4.79003">
        <ele>140</ele>
        <time>2013-04-23T14:07:49Z</time>
      </trkpt>
      <trkpt lat="45.30768" lon="4.7901">
        <ele>140</ele>
        <time>2013-04-23T14:07:50Z</time>
      </trkpt>
      <trkpt lat="45.30758" lon="4.79058">
        <ele>140</ele>
        <time>2013-04-23T14:07:57Z</time>
      </trkpt>
      <trkpt lat="45.30749" lon="4.79116">
        <ele>140</ele>
        <time>2013-04-23T14:08:06Z</time>
      </trkpt>
      <trkpt lat="45.30739" lon="4.79167">
        <ele>140</ele>
        <time>2013-04-23T14:08:14Z</time>
      </trkpt>
      <trkpt lat="45.30736" lon="4.79199">
        <ele>140</ele>
        <time>2013-04-23T14:08:19Z</time>
      </trkpt>
      <trkpt lat="45.30736" lon="4.79212">
        <ele>140</ele>
        <time>2013-04-23T14:08:21Z</time>
      </trkpt>
      <trkpt lat="45.30739" lon="4.79252">
        <ele>141</ele>
        <time>2013-04-23T14:08:28Z</time>
      </trkpt>
      <trkpt lat="45.30739" lon="4.79258">
        <ele>141</ele>
        <time>2013-04-23T14:08:29Z</time>
      </trkpt>
      <trkpt lat="45.30735" lon="4.7929">
        <ele>142</ele>
        <time>2013-04-23T14:08:35Z</time>
      </trkpt>
      <trkpt lat="45.30728" lon="4.79337">
        <ele>142</ele>
        <time>2013-04-23T14:08:44Z</time>
      </trkpt>
      <trkpt lat="45.3074" lon="4.79374">
        <ele>142</ele>
        <time>2013-04-23T14:08:51Z</time>
      </trkpt>
      <trkpt lat="45.30745" lon="4.79392">
        <ele>142</ele>
        <time>2013-04-23T14:08:56Z</time>
      </trkpt>
      <trkpt lat="45.30749" lon="4.79414">
        <ele>142</ele>
        <time>2013-04-23T14:09:02Z</time>
      </trkpt>
      <trkpt lat="45.3075" lon="4.79421">
        <ele>142</ele>
        <time>2013-04-23T14:09:07Z</time>
      </trkpt>
      <trkpt lat="45.3075" lon="4.79421">
        <ele>143</ele>
        <time>2013-04-23T14:09:09Z</time>
      </trkpt>
      <trkpt lat="45.3075" lon="4.79421">
        <ele>143</ele>
        <time>2013-04-23T14:09:10Z</time>
      </trkpt>
      <trkpt lat="45.3075" lon="4.79421">
        <ele>144</ele>
        <time>2013-04-23T14:09:11Z</time>
      </trkpt>
      <trkpt lat="45.3075" lon="4.79421">
        <ele>144</ele>
        <time>2013-04-23T14:09:12Z</time>
      </trkpt>
      <trkpt lat="45.3075" lon="4.79421">
        <ele>144</ele>
        <time>2013-04-23T14:09:13Z</time>
      </trkpt>
      <trkpt lat="45.3075" lon="4.79421">
        <ele>144</ele>
        <time>2013-04-23T14:09:22Z</time>
      </trkpt>
      <trkpt lat="45.3075" lon="4.79424">
        <ele>144</ele>
        <time>2013-04-23T14:09:33Z</time>
      </trkpt>
      <trkpt lat="45.3075" lon="4.79424">
        <ele>144</ele>
      </trkpt>
      <trkpt lat="45.3074" lon="4.7943">
        <ele>144</ele>
        <time>2013-04-23T14:09:37Z</time>
      </trkpt>
      <trkpt lat="45.30719" lon="4.79445">
        <ele>144</ele>
        <time>2013-04-23T14:09:44Z</time>
      </trkpt>
      <trkpt lat="45.30691" lon="4.79466">
        <ele>144</ele>
        <time>2013-04-23T14:09:53Z</time>
      </trkpt>
      <trkpt lat="45.30674" lon="4.7948">
        <ele>145</ele>
        <time>2013-04-23T14:09:59Z</time>
      </trkpt>
      <trkpt lat="45.3067" lon="4.79482">
        <ele>145</ele>
        <time>2013-04-23T14:10:00Z</time>
      </trkpt>
      <trkpt lat="45.30667" lon="4.79484">
        <ele>146</ele>
        <time>2013-04-23T14:10:01Z</time>
      </trkpt>
      <trkpt lat="45.30664" lon="4.79486">
        <ele>146</ele>
        <time>2013-04-23T14:10:02Z</time>
      </trkpt>
      <trkpt lat="45.30661" lon="4.79489">
        <ele>147</ele>
        <time>2013-04-23T14:10:03Z</time>
      </trkpt>
      <trkpt lat="45.30646" lon="4.79502">
        <ele>147</ele>
        <time>2013-04-23T14:10:08Z</time>
      </trkpt>
      <trkpt lat="45.30634" lon="4.79518">
        <ele>147</ele>
        <time>2013-04-23T14:10:13Z</time>
      </trkpt>
      <trkpt lat="45.30632" lon="4.79522">
        <ele>147</ele>
        <time>2013-04-23T14:10:14Z</time>
      </trkpt>
      <trkpt lat="45.3063" lon="4.79526">
        <ele>148</ele>
        <time>2013-04-23T14:10:15Z</time>
      </trkpt>
      <trkpt lat="45.30628" lon="4.79531">
        <ele>148</ele>
        <time>2013-04-23T14:10:16Z</time>
      </trkpt>
      <trkpt lat="45.30626" lon="4.79534">
        <ele>149</ele>
        <time>2013-04-23T14:10:17Z</time>
      </trkpt>
      <trkpt lat="45.30621" lon="4.79556">
        <ele>149</ele>
        <time>2013-04-23T14:10:22Z</time>
      </trkpt>
      <trkpt lat="45.30619" lon="4.79582">
        <ele>149</ele>
        <time>2013-04-23T14:10:28Z</time>
      </trkpt>
      <trkpt lat="45.30619" lon="4.79586">
        <ele>150</ele>
        <time>2013-04-23T14:10:29Z</time>
      </trkpt>
      <trkpt lat="45.3062" lon="4.7959">
        <ele>150</ele>
        <time>2013-04-23T14:10:30Z</time>
      </trkpt>
      <trkpt lat="45.3062" lon="4.79594">
        <ele>150</ele>
        <time>2013-04-23T14:10:31Z</time>
      </trkpt>
      <trkpt lat="45.30621" lon="4.79599">
        <ele>151</ele>
        <time>2013-04-23T14:10:32Z</time>
      </trkpt>
      <trkpt lat="45.30627" lon="4.79626">
        <ele>151</ele>
        <time>2013-04-23T14:10:38Z</time>
      </trkpt>
      <trkpt lat="45.30642" lon="4.79672">
        <ele>151</ele>
        <time>2013-04-23T14:10:48Z</time>
      </trkpt>
      <trkpt lat="45.30654" lon="4.79707">
        <ele>151</ele>
        <time>2013-04-23T14:10:55Z</time>
      </trkpt>
      <trkpt lat="45.30671" lon="4.79753">
        <ele>151</ele>
        <time>2013-04-23T14:11:04Z</time>
      </trkpt>
      <trkpt lat="45.30683" lon="4.79785">
        <ele>151</ele>
        <time>2013-04-23T14:11:10Z</time>
      </trkpt>
      <trkpt lat="45.30689" lon="4.798">
        <ele>151</ele>
        <time>2013-04-23T14:11:13Z</time>
      </trkpt>
      <trkpt lat="45.30707" lon="4.79848">
        <ele>151</ele>
        <time>2013-04-23T14:11:22Z</time>
      </trkpt>
      <trkpt lat="45.3072" lon="4.79882">
        <ele>151</ele>
        <time>2013-04-23T14:11:29Z</time>
      </trkpt>
      <trkpt lat="45.30737" lon="4.79927">
        <ele>151</ele>
        <time>2013-04-23T14:11:38Z</time>
      </trkpt>
      <trkpt lat="45.30751" lon="4.7996">
        <ele>151</ele>
        <time>2013-04-23T14:11:44Z</time>
      </trkpt>
      <trkpt lat="45.30755" lon="4.79973">
        <ele>151</ele>
        <time>2013-04-23T14:11:46Z</time>
      </trkpt>
      <trkpt lat="45.30765" lon="4.79999">
        <ele>147</ele>
        <time>2013-04-23T14:12:48Z</time>
      </trkpt>
      <trkpt lat="45.30766" lon="4.80003">
        <ele>147</ele>
        <time>2013-04-23T14:12:49Z</time>
      </trkpt>
      <trkpt lat="45.30769" lon="4.80015">
        <ele>147</ele>
        <time>2013-04-23T14:12:52Z</time>
      </trkpt>
      <trkpt lat="45.30772" lon="4.8003">
        <ele>147</ele>
        <time>2013-04-23T14:12:55Z</time>
      </trkpt>
      <trkpt lat="45.3078" lon="4.80064">
        <ele>147</ele>
        <time>2013-04-23T14:13:01Z</time>
      </trkpt>
      <trkpt lat="45.30789" lon="4.80121">
        <ele>147</ele>
        <time>2013-04-23T14:13:09Z</time>
      </trkpt>
      <trkpt lat="45.30792" lon="4.80153">
        <ele>147</ele>
        <time>2013-04-23T14:13:13Z</time>
      </trkpt>
      <trkpt lat="45.30791" lon="4.80161">
        <ele>146</ele>
        <time>2013-04-23T14:13:14Z</time>
      </trkpt>
      <trkpt lat="45.30789" lon="4.80168">
        <ele>146</ele>
        <time>2013-04-23T14:13:15Z</time>
      </trkpt>
      <trkpt lat="45.30784" lon="4.80174">
        <ele>145</ele>
        <time>2013-04-23T14:13:16Z</time>
      </trkpt>
      <trkpt lat="45.30779" lon="4.80177">
        <ele>145</ele>
        <time>2013-04-23T14:13:17Z</time>
      </trkpt>
      <trkpt lat="45.30775" lon="4.80179">
        <ele>145</ele>
        <time>2013-04-23T14:13:18Z</time>
      </trkpt>
      <trkpt lat="45.30772" lon="4.8018">
        <ele>145</ele>
        <time>2013-04-23T14:13:19Z</time>
      </trkpt>
      <trkpt lat="45.30769" lon="4.80178">
        <ele>145</ele>
        <time>2013-04-23T14:13:22Z</time>
      </trkpt>
      <trkpt lat="45.30769" lon="4.80178">
        <ele>144</ele>
        <time>2013-04-23T14:13:29Z</time>
      </trkpt>
      <trkpt lat="45.30769" lon="4.80178">
        <ele>144</ele>
        <time>2013-04-23T14:13:30Z</time>
      </trkpt>
      <trkpt lat="45.30769" lon="4.80178">
        <ele>143</ele>
        <time>2013-04-23T14:13:31Z</time>
      </trkpt>
      <trkpt lat="45.30769" lon="4.80178">
        <ele>143</ele>
        <time>2013-04-23T14:13:32Z</time>
      </trkpt>
      <trkpt lat="45.30769" lon="4.80178">
        <ele>143</ele>
        <time>2013-04-23T14:13:33Z</time>
      </trkpt>
      <trkpt lat="45.30769" lon="4.80178">
        <ele>143</ele>
        <time>2013-04-23T14:13:34Z</time>
      </trkpt>
      <trkpt lat="45.30768" lon="4.80173">
        <ele>143</ele>
        <time>2013-04-23T14:13:42Z</time>
      </trkpt>
      <trkpt lat="45.30768" lon="4.80173">
        <ele>143</ele>
      </trkpt>
      <trkpt lat="45.30768" lon="4.80158">
        <ele>143</ele>
        <time>2013-04-23T14:13:46Z</time>
      </trkpt>
      <trkpt lat="45.30766" lon="4.80149">
        <ele>143</ele>
        <time>2013-04-23T14:13:48Z</time>
      </trkpt>
      <trkpt lat="45.30763" lon="4.80148">
        <ele>143</ele>
        <time>2013-04-23T14:13:49Z</time>
      </trkpt>
      <trkpt lat="45.30752" lon="4.80154">
        <ele>143</ele>
        <time>2013-04-23T14:13:52Z</time>
      </trkpt>
      <trkpt lat="45.30727" lon="4.8017">
        <ele>143</ele>
        <time>2013-04-23T14:13:59Z</time>
      </trkpt>
      <trkpt lat="45.30699" lon="4.8019">
        <ele>143</ele>
        <time>2013-04-23T14:14:06Z</time>
      </trkpt>
      <trkpt lat="45.30672" lon="4.8021">
        <ele>143</ele>
        <time>2013-04-23T14:14:13Z</time>
      </trkpt>
      <trkpt lat="45.30647" lon="4.80229">
        <ele>143</ele>
        <time>2013-04-23T14:14:20Z</time>
      </trkpt>
      <trkpt lat="45.30604" lon="4.8026">
        <ele>143</ele>
        <time>2013-04-23T14:14:30Z</time>
      </trkpt>
      <trkpt lat="45.30571" lon="4.80284">
        <ele>143</ele>
        <time>2013-04-23T14:14:37Z</time>
      </trkpt>
      <trkpt lat="45.30544" lon="4.80304">
        <ele>143</ele>
        <time>2013-04-23T14:14:43Z</time>
      </trkpt>
      <trkpt lat="45.30508" lon="4.8033">
        <ele>143</ele>
        <time>2013-04-23T14:14:51Z</time>
      </trkpt>
      <trkpt lat="45.30479" lon="4.80351">
        <ele>143</ele>
        <time>2013-04-23T14:14:57Z</time>
      </trkpt>
      <trkpt lat="45.30474" lon="4.80355">
        <ele>143</ele>
        <time>2013-04-23T14:14:58Z</time>
      </trkpt>
      <trkpt lat="45.30441" lon="4.80378">
        <ele>143</ele>
        <time>2013-04-23T14:15:05Z</time>
      </trkpt>
      <trkpt lat="45.30413" lon="4.80393">
        <ele>143</ele>
        <time>2013-04-23T14:15:11Z</time>
      </trkpt>
      <trkpt lat="45.30386" lon="4.80397">
        <ele>143</ele>
        <time>2013-04-23T14:15:16Z</time>
      </trkpt>
      <trkpt lat="45.30376" lon="4.80395">
        <ele>143</ele>
        <time>2013-04-23T14:15:18Z</time>
      </trkpt>
      <trkpt lat="45.3035" lon="4.80379">
        <ele>143</ele>
        <time>2013-04-23T14:15:23Z</time>
      </trkpt>
      <trkpt lat="45.30317" lon="4.80349">
        <ele>143</ele>
        <time>2013-04-23T14:15:30Z</time>
      </trkpt>
      <trkpt lat="45.30283" lon="4.80324">
        <ele>143</ele>
        <time>2013-04-23T14:15:37Z</time>
      </trkpt>
      <trkpt lat="45.30246" lon="4.80308">
        <ele>143</ele>
        <time>2013-04-23T14:15:44Z</time>
      </trkpt>
      <trkpt lat="45.30208" lon="4.80303">
        <ele>143</ele>
        <time>2013-04-23T14:15:51Z</time>
      </trkpt>
      <trkpt lat="45.30179" lon="4.80313">
        <ele>143</ele>
        <time>2013-04-23T14:15:56Z</time>
      </trkpt>
      <trkpt lat="45.30168" lon="4.8032">
        <ele>143</ele>
        <time>2013-04-23T14:15:58Z</time>
      </trkpt>
      <trkpt lat="45.30152" lon="4.80333">
        <ele>143</ele>
        <time>2013-04-23T14:16:01Z</time>
      </trkpt>
      <trkpt lat="45.30128" lon="4.8036">
        <ele>143</ele>
        <time>2013-04-23T14:16:06Z</time>
      </trkpt>
      <trkpt lat="45.30094" lon="4.80391">
        <ele>143</ele>
        <time>2013-04-23T14:16:12Z</time>
      </trkpt>
      <trkpt lat="45.30088" lon="4.80396">
        <ele>142</ele>
        <time>2013-04-23T14:16:13Z</time>
      </trkpt>
      <trkpt lat="45.30082" lon="4.80402">
        <ele>142</ele>
        <time>2013-04-23T14:16:14Z</time>
      </trkpt>
      <trkpt lat="45.30076" lon="4.80407">
        <ele>141</ele>
        <time>2013-04-23T14:16:15Z</time>
      </trkpt>
      <trkpt lat="45.3007" lon="4.80413">
        <ele>141</ele>
        <time>2013-04-23T14:16:16Z</time>
      </trkpt>
      <trkpt lat="45.30064" lon="4.80419">
        <ele>141</ele>
        <time>2013-04-23T14:16:17Z</time>
      </trkpt>
      <trkpt lat="45.30059" lon="4.80425">
        <ele>141</ele>
        <time>2013-04-23T14:16:18Z</time>
      </trkpt>
      <trkpt lat="45.30036" lon="4.80449">
        <ele>141</ele>
        <time>2013-04-23T14:16:22Z</time>
      </trkpt>
      <trkpt lat="45.30008" lon="4.8048">
        <ele>141</ele>
        <time>2013-04-23T14:16:28Z</time>
      </trkpt>
      <trkpt lat="45.29998" lon="4.80489">
        <ele>141</ele>
        <time>2013-04-23T14:16:30Z</time>
      </trkpt>
      <trkpt lat="45.29984" lon="4.80504">
        <ele>141</ele>
        <time>2013-04-23T14:16:33Z</time>
      </trkpt>
      <trkpt lat="45.29949" lon="4.80541">
        <ele>141</ele>
        <time>2013-04-23T14:16:40Z</time>
      </trkpt>
      <trkpt lat="45.29919" lon="4.80572">
        <ele>141</ele>
        <time>2013-04-23T14:16:47Z</time>
      </trkpt>
      <trkpt lat="45.29904" lon="4.80588">
        <ele>141</ele>
        <time>2013-04-23T14:16:51Z</time>
      </trkpt>
      <trkpt lat="45.29897" lon="4.80595">
        <ele>141</ele>
        <time>2013-04-23T14:16:53Z</time>
      </trkpt>
      <trkpt lat="45.29893" lon="4.80598">
        <ele>141</ele>
        <time>2013-04-23T14:16:54Z</time>
      </trkpt>
      <trkpt lat="45.29882" lon="4.8061">
        <ele>141</ele>
        <time>2013-04-23T14:16:58Z</time>
      </trkpt>
      <trkpt lat="45.29858" lon="4.80634">
        <ele>141</ele>
        <time>2013-04-23T14:17:06Z</time>
      </trkpt>
      <trkpt lat="45.29846" lon="4.80649">
        <ele>141</ele>
        <time>2013-04-23T14:17:10Z</time>
      </trkpt>
      <trkpt lat="45.29839" lon="4.80656">
        <ele>141</ele>
        <time>2013-04-23T14:17:12Z</time>
      </trkpt>
      <trkpt lat="45.2982" lon="4.80681">
        <ele>141</ele>
        <time>2013-04-23T14:17:19Z</time>
      </trkpt>
      <trkpt lat="45.29803" lon="4.80697">
        <ele>141</ele>
        <time>2013-04-23T14:17:24Z</time>
      </trkpt>
      <trkpt lat="45.29799" lon="4.80701">
        <ele>141</ele>
        <time>2013-04-23T14:17:25Z</time>
      </trkpt>
      <trkpt lat="45.29775" lon="4.80726">
        <ele>141</ele>
        <time>2013-04-23T14:17:32Z</time>
      </trkpt>
      <trkpt lat="45.29747" lon="4.80755">
        <ele>141</ele>
        <time>2013-04-23T14:17:39Z</time>
      </trkpt>
      <trkpt lat="45.29725" lon="4.80778">
        <ele>141</ele>
        <time>2013-04-23T14:17:45Z</time>
      </trkpt>
      <trkpt lat="45.29709" lon="4.80794">
        <ele>141</ele>
        <time>2013-04-23T14:17:50Z</time>
      </trkpt>
      <trkpt lat="45.29687" lon="4.80814">
        <ele>141</ele>
        <time>2013-04-23T14:17:57Z</time>
      </trkpt>
      <trkpt lat="45.29673" lon="4.80826">
        <ele>141</ele>
        <time>2013-04-23T14:18:02Z</time>
      </trkpt>
      <trkpt lat="45.29668" lon="4.80829">
        <ele>141</ele>
        <time>2013-04-23T14:18:04Z</time>
      </trkpt>
      <trkpt lat="45.29666" lon="4.80831">
        <ele>141</ele>
        <time>2013-04-23T14:18:05Z</time>
      </trkpt>
      <trkpt lat="45.29666" lon="4.80831">
        <ele>141</ele>
      </trkpt>
      <trkpt lat="45.29662" lon="4.80835">
        <ele>141</ele>
        <time>2013-04-23T14:18:07Z</time>
      </trkpt>
      <trkpt lat="45.29649" lon="4.80843">
        <ele>141</ele>
        <time>2013-04-23T14:21:34Z</time>
      </trkpt>
      <trkpt lat="45.29635" lon="4.80855">
        <ele>141</ele>
        <time>2013-04-23T14:21:40Z</time>
      </trkpt>
      <trkpt lat="45.29616" lon="4.80871">
        <ele>141</ele>
        <time>2013-04-23T14:21:47Z</time>
      </trkpt>
      <trkpt lat="45.29599" lon="4.80882">
        <ele>141</ele>
        <time>2013-04-23T14:21:53Z</time>
      </trkpt>
      <trkpt lat="45.29587" lon="4.80892">
        <ele>141</ele>
        <time>2013-04-23T14:21:58Z</time>
      </trkpt>
      <trkpt lat="45.29574" lon="4.80902">
        <ele>141</ele>
        <time>2013-04-23T14:22:05Z</time>
      </trkpt>
      <trkpt lat="45.29574" lon="4.80902">
        <ele>141</ele>
        <time>2013-04-23T14:22:16Z</time>
      </trkpt>
      <trkpt lat="45.29574" lon="4.80902">
        <ele>141</ele>
        <time>2013-04-23T14:22:27Z</time>
      </trkpt>
      <trkpt lat="45.29565" lon="4.80908">
        <ele>141</ele>
        <time>2013-04-23T14:22:31Z</time>
      </trkpt>
      <trkpt lat="45.29551" lon="4.80917">
        <ele>141</ele>
        <time>2013-04-23T14:22:35Z</time>
      </trkpt>
      <trkpt lat="45.29524" lon="4.80935">
        <ele>141</ele>
        <time>2013-04-23T14:22:42Z</time>
      </trkpt>
      <trkpt lat="45.295" lon="4.80949">
        <ele>141</ele>
        <time>2013-04-23T14:22:48Z</time>
      </trkpt>
      <trkpt lat="45.29468" lon="4.80967">
        <ele>141</ele>
        <time>2013-04-23T14:22:55Z</time>
      </trkpt>
      <trkpt lat="45.29444" lon="4.80978">
        <ele>141</ele>
        <time>2013-04-23T14:23:00Z</time>
      </trkpt>
      <trkpt lat="45.2944" lon="4.8098">
        <ele>141</ele>
        <time>2013-04-23T14:23:01Z</time>
      </trkpt>
      <trkpt lat="45.29408" lon="4.80994">
        <ele>141</ele>
        <time>2013-04-23T14:23:07Z</time>
      </trkpt>
      <trkpt lat="45.29367" lon="4.81012">
        <ele>141</ele>
        <time>2013-04-23T14:23:14Z</time>
      </trkpt>
      <trkpt lat="45.29355" lon="4.81017">
        <ele>141</ele>
        <time>2013-04-23T14:23:16Z</time>
      </trkpt>
      <trkpt lat="45.29341" lon="4.81025">
        <ele>141</ele>
        <time>2013-04-23T14:23:19Z</time>
      </trkpt>
      <trkpt lat="45.29327" lon="4.81036">
        <ele>141</ele>
        <time>2013-04-23T14:23:24Z</time>
      </trkpt>
      <trkpt lat="45.29327" lon="4.81036">
        <ele>141</ele>
        <time>2013-04-23T14:23:28Z</time>
      </trkpt>
      <trkpt lat="45.29327" lon="4.81036">
        <ele>141</ele>
        <time>2013-04-23T14:23:44Z</time>
      </trkpt>
      <trkpt lat="45.29322" lon="4.81039">
        <ele>141</ele>
        <time>2013-04-23T14:23:53Z</time>
      </trkpt>
      <trkpt lat="45.29322" lon="4.81039">
        <ele>141</ele>
      </trkpt>
      <trkpt lat="45.29308" lon="4.81045">
        <ele>141</ele>
        <time>2013-04-23T14:23:58Z</time>
      </trkpt>
      <trkpt lat="45.29295" lon="4.81051">
        <ele>141</ele>
        <time>2013-04-23T14:24:02Z</time>
      </trkpt>
      <trkpt lat="45.29291" lon="4.81052">
        <ele>141</ele>
        <time>2013-04-23T14:24:03Z</time>
      </trkpt>
      <trkpt lat="45.29287" lon="4.81053">
        <ele>142</ele>
        <time>2013-04-23T14:24:04Z</time>
      </trkpt>
      <trkpt lat="45.29284" lon="4.81055">
        <ele>142</ele>
        <time>2013-04-23T14:24:05Z</time>
      </trkpt>
      <trkpt lat="45.29279" lon="4.81056">
        <ele>143</ele>
        <time>2013-04-23T14:24:06Z</time>
      </trkpt>
      <trkpt lat="45.29252" lon="4.81064">
        <ele>143</ele>
        <time>2013-04-23T14:24:13Z</time>
      </trkpt>
      <trkpt lat="45.29228" lon="4.81075">
        <ele>143</ele>
        <time>2013-04-23T14:24:19Z</time>
      </trkpt>
      <trkpt lat="45.29224" lon="4.81077">
        <ele>143</ele>
        <time>2013-04-23T14:24:20Z</time>
      </trkpt>
      <trkpt lat="45.29205" lon="4.81085">
        <ele>143</ele>
        <time>2013-04-23T14:24:25Z</time>
      </trkpt>
      <trkpt lat="45.29177" lon="4.8109">
        <ele>143</ele>
        <time>2013-04-23T14:24:32Z</time>
      </trkpt>
      <trkpt lat="45.29141" lon="4.81095">
        <ele>143</ele>
        <time>2013-04-23T14:24:40Z</time>
      </trkpt>
      <trkpt lat="45.29104" lon="4.81099">
        <ele>143</ele>
        <time>2013-04-23T14:24:48Z</time>
      </trkpt>
      <trkpt lat="45.29059" lon="4.81104">
        <ele>143</ele>
        <time>2013-04-23T14:24:57Z</time>
      </trkpt>
      <trkpt lat="45.29013" lon="4.8111">
        <ele>143</ele>
        <time>2013-04-23T14:25:06Z</time>
      </trkpt>
      <trkpt lat="45.28974" lon="4.81113">
        <ele>143</ele>
        <time>2013-04-23T14:25:13Z</time>
      </trkpt>
      <trkpt lat="45.28929" lon="4.81116">
        <ele>143</ele>
        <time>2013-04-23T14:25:21Z</time>
      </trkpt>
      <trkpt lat="45.28879" lon="4.81119">
        <ele>143</ele>
        <time>2013-04-23T14:25:30Z</time>
      </trkpt>
      <trkpt lat="45.28834" lon="4.81121">
        <ele>143</ele>
        <time>2013-04-23T14:25:38Z</time>
      </trkpt>
      <trkpt lat="45.28782" lon="4.81118">
        <ele>143</ele>
        <time>2013-04-23T14:25:47Z</time>
      </trkpt>
      <trkpt lat="45.28741" lon="4.81117">
        <ele>143</ele>
        <time>2013-04-23T14:25:55Z</time>
      </trkpt>
      <trkpt lat="45.28704" lon="4.8112">
        <ele>143</ele>
        <time>2013-04-23T14:26:02Z</time>
      </trkpt>
      <trkpt lat="45.2866" lon="4.81122">
        <ele>143</ele>
        <time>2013-04-23T14:26:10Z</time>
      </trkpt>
      <trkpt lat="45.28621" lon="4.81123">
        <ele>143</ele>
        <time>2013-04-23T14:26:17Z</time>
      </trkpt>
      <trkpt lat="45.28605" lon="4.81122">
        <ele>143</ele>
        <time>2013-04-23T14:26:20Z</time>
      </trkpt>
      <trkpt lat="45.28589" lon="4.81118">
        <ele>143</ele>
        <time>2013-04-23T14:26:23Z</time>
      </trkpt>
      <trkpt lat="45.28549" lon="4.81112">
        <ele>143</ele>
        <time>2013-04-23T14:26:30Z</time>
      </trkpt>
      <trkpt lat="45.28513" lon="4.81111">
        <ele>143</ele>
        <time>2013-04-23T14:26:37Z</time>
      </trkpt>
      <trkpt lat="45.28473" lon="4.81107">
        <ele>143</ele>
        <time>2013-04-23T14:26:44Z</time>
      </trkpt>
      <trkpt lat="45.28467" lon="4.81107">
        <ele>142</ele>
        <time>2013-04-23T14:26:45Z</time>
      </trkpt>
      <trkpt lat="45.28461" lon="4.81106">
        <ele>142</ele>
        <time>2013-04-23T14:26:46Z</time>
      </trkpt>
      <trkpt lat="45.28454" lon="4.81105">
        <ele>141</ele>
        <time>2013-04-23T14:26:47Z</time>
      </trkpt>
      <trkpt lat="45.28448" lon="4.81105">
        <ele>141</ele>
        <time>2013-04-23T14:26:48Z</time>
      </trkpt>
      <trkpt lat="45.28441" lon="4.81105">
        <ele>140</ele>
        <time>2013-04-23T14:26:49Z</time>
      </trkpt>
      <trkpt lat="45.28428" lon="4.81104">
        <ele>140</ele>
        <time>2013-04-23T14:26:51Z</time>
      </trkpt>
      <trkpt lat="45.28415" lon="4.81104">
        <ele>140</ele>
        <time>2013-04-23T14:26:53Z</time>
      </trkpt>
      <trkpt lat="45.28396" lon="4.8111">
        <ele>140</ele>
        <time>2013-04-23T14:26:56Z</time>
      </trkpt>
      <trkpt lat="45.2839" lon="4.81111">
        <ele>140</ele>
        <time>2013-04-23T14:26:57Z</time>
      </trkpt>
      <trkpt lat="45.28374" lon="4.81111">
        <ele>140</ele>
        <time>2013-04-23T14:27:00Z</time>
      </trkpt>
      <trkpt lat="45.28215" lon="4.81135">
        <ele>138</ele>
        <time>2013-04-23T14:27:32Z</time>
      </trkpt>
      <trkpt lat="45.28178" lon="4.8114">
        <ele>138</ele>
        <time>2013-04-23T14:27:40Z</time>
      </trkpt>
      <trkpt lat="45.28163" lon="4.81143">
        <ele>138</ele>
        <time>2013-04-23T14:27:43Z</time>
      </trkpt>
      <trkpt lat="45.28152" lon="4.81146">
        <ele>138</ele>
        <time>2013-04-23T14:27:45Z</time>
      </trkpt>
      <trkpt lat="45.28112" lon="4.81155">
        <ele>138</ele>
        <time>2013-04-23T14:27:53Z</time>
      </trkpt>
      <trkpt lat="45.28069" lon="4.8116">
        <ele>138</ele>
        <time>2013-04-23T14:28:01Z</time>
      </trkpt>
      <trkpt lat="45.28038" lon="4.81164">
        <ele>138</ele>
        <time>2013-04-23T14:28:07Z</time>
      </trkpt>
      <trkpt lat="45.28021" lon="4.81168">
        <ele>138</ele>
        <time>2013-04-23T14:28:11Z</time>
      </trkpt>
      <trkpt lat="45.28011" lon="4.81169">
        <ele>138</ele>
        <time>2013-04-23T14:28:13Z</time>
      </trkpt>
      <trkpt lat="45.28006" lon="4.8117">
        <ele>138</ele>
        <time>2013-04-23T14:28:14Z</time>
      </trkpt>
      <trkpt lat="45.27982" lon="4.81176">
        <ele>138</ele>
        <time>2013-04-23T14:28:19Z</time>
      </trkpt>
      <trkpt lat="45.27959" lon="4.81179">
        <ele>138</ele>
        <time>2013-04-23T14:28:24Z</time>
      </trkpt>
      <trkpt lat="45.27951" lon="4.81181">
        <ele>138</ele>
        <time>2013-04-23T14:28:26Z</time>
      </trkpt>
      <trkpt lat="45.27918" lon="4.81187">
        <ele>138</ele>
        <time>2013-04-23T14:28:33Z</time>
      </trkpt>
      <trkpt lat="45.27884" lon="4.81184">
        <ele>138</ele>
        <time>2013-04-23T14:28:39Z</time>
      </trkpt>
      <trkpt lat="45.27844" lon="4.81181">
        <ele>138</ele>
        <time>2013-04-23T14:28:45Z</time>
      </trkpt>
      <trkpt lat="45.27831" lon="4.81182">
        <ele>138</ele>
        <time>2013-04-23T14:28:47Z</time>
      </trkpt>
      <trkpt lat="45.27812" lon="4.81182">
        <ele>138</ele>
        <time>2013-04-23T14:28:50Z</time>
      </trkpt>
      <trkpt lat="45.27766" lon="4.8118">
        <ele>138</ele>
        <time>2013-04-23T14:28:57Z</time>
      </trkpt>
      <trkpt lat="45.27715" lon="4.81182">
        <ele>138</ele>
        <time>2013-04-23T14:29:04Z</time>
      </trkpt>
      <trkpt lat="45.27659" lon="4.81179">
        <ele>138</ele>
        <time>2013-04-23T14:29:12Z</time>
      </trkpt>
      <trkpt lat="45.27608" lon="4.81178">
        <ele>138</ele>
        <time>2013-04-23T14:29:19Z</time>
      </trkpt>
      <trkpt lat="45.27559" lon="4.81177">
        <ele>138</ele>
        <time>2013-04-23T14:29:26Z</time>
      </trkpt>
      <trkpt lat="45.27522" lon="4.81176">
        <ele>138</ele>
        <time>2013-04-23T14:29:31Z</time>
      </trkpt>
      <trkpt lat="45.2747" lon="4.81173">
        <ele>138</ele>
        <time>2013-04-23T14:29:38Z</time>
      </trkpt>
      <trkpt lat="45.27437" lon="4.81173">
        <ele>138</ele>
        <time>2013-04-23T14:29:43Z</time>
      </trkpt>
      <trkpt lat="45.27383" lon="4.81172">
        <ele>138</ele>
        <time>2013-04-23T14:29:51Z</time>
      </trkpt>
      <trkpt lat="45.27377" lon="4.81172">
        <ele>138</ele>
        <time>2013-04-23T14:29:52Z</time>
      </trkpt>
      <trkpt lat="45.27354" lon="4.81175">
        <ele>138</ele>
        <time>2013-04-23T14:29:56Z</time>
      </trkpt>
      <trkpt lat="45.27323" lon="4.81178">
        <ele>138</ele>
        <time>2013-04-23T14:30:02Z</time>
      </trkpt>
      <trkpt lat="45.27289" lon="4.81181">
        <ele>138</ele>
        <time>2013-04-23T14:30:09Z</time>
      </trkpt>
      <trkpt lat="45.27279" lon="4.81182">
        <ele>139</ele>
        <time>2013-04-23T14:30:11Z</time>
      </trkpt>
      <trkpt lat="45.27274" lon="4.81183">
        <ele>139</ele>
        <time>2013-04-23T14:30:12Z</time>
      </trkpt>
      <trkpt lat="45.27269" lon="4.81184">
        <ele>140</ele>
        <time>2013-04-23T14:30:13Z</time>
      </trkpt>
      <trkpt lat="45.27264" lon="4.81184">
        <ele>140</ele>
        <time>2013-04-23T14:30:14Z</time>
      </trkpt>
      <trkpt lat="45.27259" lon="4.81184">
        <ele>140</ele>
        <time>2013-04-23T14:30:15Z</time>
      </trkpt>
      <trkpt lat="45.27255" lon="4.81185">
        <ele>140</ele>
        <time>2013-04-23T14:30:16Z</time>
      </trkpt>
      <trkpt lat="45.27222" lon="4.81188">
        <ele>141</ele>
        <time>2013-04-23T14:30:23Z</time>
      </trkpt>
      <trkpt lat="45.27217" lon="4.81188">
        <ele>142</ele>
        <time>2013-04-23T14:30:24Z</time>
      </trkpt>
      <trkpt lat="45.27213" lon="4.81189">
        <ele>142</ele>
        <time>2013-04-23T14:30:25Z</time>
      </trkpt>
      <trkpt lat="45.27209" lon="4.81189">
        <ele>143</ele>
        <time>2013-04-23T14:30:26Z</time>
      </trkpt>
      <trkpt lat="45.27196" lon="4.81189">
        <ele>143</ele>
        <time>2013-04-23T14:30:30Z</time>
      </trkpt>
      <trkpt lat="45.27181" lon="4.81189">
        <ele>143</ele>
        <time>2013-04-23T14:30:36Z</time>
      </trkpt>
      <trkpt lat="45.27172" lon="4.8119">
        <ele>143</ele>
        <time>2013-04-23T14:30:39Z</time>
      </trkpt>
      <trkpt lat="45.2717" lon="4.81191">
        <ele>143</ele>
        <time>2013-04-23T14:30:40Z</time>
      </trkpt>
      <trkpt lat="45.2717" lon="4.81191">
        <ele>143</ele>
        <time>2013-04-23T14:30:45Z</time>
      </trkpt>
      <trkpt lat="45.27168" lon="4.81191">
        <ele>143</ele>
        <time>2013-04-23T14:30:51Z</time>
      </trkpt>
      <trkpt lat="45.27166" lon="4.81191">
        <ele>143</ele>
        <time>2013-04-23T14:30:52Z</time>
      </trkpt>
      <trkpt lat="45.27166" lon="4.81191">
        <ele>143</ele>
      </trkpt>
      <trkpt lat="45.27149" lon="4.81189">
        <ele>143</ele>
        <time>2013-04-23T14:30:56Z</time>
      </trkpt>
      <trkpt lat="45.27118" lon="4.81189">
        <ele>143</ele>
        <time>2013-04-23T14:31:01Z</time>
      </trkpt>
      <trkpt lat="45.27098" lon="4.81191">
        <ele>142</ele>
        <time>2013-04-23T14:31:04Z</time>
      </trkpt>
      <trkpt lat="45.27091" lon="4.81192">
        <ele>142</ele>
        <time>2013-04-23T14:31:05Z</time>
      </trkpt>
      <trkpt lat="45.27084" lon="4.81193">
        <ele>141</ele>
        <time>2013-04-23T14:31:06Z</time>
      </trkpt>
      <trkpt lat="45.27078" lon="4.81193">
        <ele>141</ele>
        <time>2013-04-23T14:31:07Z</time>
      </trkpt>
      <trkpt lat="45.27071" lon="4.81195">
        <ele>140</ele>
        <time>2013-04-23T14:31:08Z</time>
      </trkpt>
      <trkpt lat="45.27027" lon="4.81198">
        <ele>140</ele>
        <time>2013-04-23T14:31:15Z</time>
      </trkpt>
      <trkpt lat="45.26987" lon="4.81194">
        <ele>140</ele>
        <time>2013-04-23T14:31:22Z</time>
      </trkpt>
      <trkpt lat="45.26976" lon="4.81195">
        <ele>140</ele>
        <time>2013-04-23T14:31:24Z</time>
      </trkpt>
      <trkpt lat="45.26959" lon="4.81197">
        <ele>140</ele>
        <time>2013-04-23T14:31:27Z</time>
      </trkpt>
      <trkpt lat="45.26953" lon="4.81197">
        <ele>140</ele>
        <time>2013-04-23T14:31:28Z</time>
      </trkpt>
      <trkpt lat="45.26942" lon="4.81197">
        <ele>140</ele>
        <time>2013-04-23T14:31:30Z</time>
      </trkpt>
      <trkpt lat="45.26931" lon="4.81198">
        <ele>140</ele>
        <time>2013-04-23T14:31:32Z</time>
      </trkpt>
      <trkpt lat="45.26919" lon="4.81198">
        <ele>140</ele>
        <time>2013-04-23T14:31:35Z</time>
      </trkpt>
      <trkpt lat="45.26914" lon="4.81198">
        <ele>140</ele>
        <time>2013-04-23T14:31:36Z</time>
      </trkpt>
      <trkpt lat="45.26908" lon="4.81198">
        <ele>139</ele>
        <time>2013-04-23T14:31:37Z</time>
      </trkpt>
      <trkpt lat="45.26902" lon="4.81198">
        <ele>139</ele>
        <time>2013-04-23T14:31:38Z</time>
      </trkpt>
      <trkpt lat="45.26896" lon="4.81199">
        <ele>138</ele>
        <time>2013-04-23T14:31:39Z</time>
      </trkpt>
      <trkpt lat="45.2689" lon="4.812">
        <ele>138</ele>
        <time>2013-04-23T14:31:40Z</time>
      </trkpt>
      <trkpt lat="45.26848" lon="4.81207">
        <ele>138</ele>
        <time>2013-04-23T14:31:47Z</time>
      </trkpt>
      <trkpt lat="45.26808" lon="4.81214">
        <ele>138</ele>
        <time>2013-04-23T14:31:54Z</time>
      </trkpt>
      <trkpt lat="45.26761" lon="4.81221">
        <ele>138</ele>
        <time>2013-04-23T14:32:03Z</time>
      </trkpt>
      <trkpt lat="45.26718" lon="4.81232">
        <ele>138</ele>
        <time>2013-04-23T14:32:11Z</time>
      </trkpt>
      <trkpt lat="45.26708" lon="4.81237">
        <ele>138</ele>
        <time>2013-04-23T14:32:13Z</time>
      </trkpt>
      <trkpt lat="45.26692" lon="4.81246">
        <ele>138</ele>
        <time>2013-04-23T14:32:17Z</time>
      </trkpt>
      <trkpt lat="45.26663" lon="4.81259">
        <ele>138</ele>
        <time>2013-04-23T14:32:24Z</time>
      </trkpt>
      <trkpt lat="45.26649" lon="4.81269">
        <ele>138</ele>
        <time>2013-04-23T14:32:28Z</time>
      </trkpt>
      <trkpt lat="45.26645" lon="4.8127">
        <ele>138</ele>
        <time>2013-04-23T14:32:29Z</time>
      </trkpt>
      <trkpt lat="45.2664" lon="4.81273">
        <ele>138</ele>
        <time>2013-04-23T14:32:32Z</time>
      </trkpt>
      <trkpt lat="45.2664" lon="4.81273">
        <ele>138</ele>
        <time>2013-04-23T14:32:37Z</time>
      </trkpt>
      <trkpt lat="45.26637" lon="4.81274">
        <ele>138</ele>
        <time>2013-04-23T14:32:44Z</time>
      </trkpt>
      <trkpt lat="45.26637" lon="4.81274">
        <ele>138</ele>
      </trkpt>
      <trkpt lat="45.26635" lon="4.81274">
        <ele>138</ele>
        <time>2013-04-23T14:32:45Z</time>
      </trkpt>
      <trkpt lat="45.26616" lon="4.81272">
        <ele>138</ele>
        <time>2013-04-23T14:32:50Z</time>
      </trkpt>
      <trkpt lat="45.26587" lon="4.81265">
        <ele>138</ele>
        <time>2013-04-23T14:32:56Z</time>
      </trkpt>
      <trkpt lat="45.26583" lon="4.81263">
        <ele>138</ele>
        <time>2013-04-23T14:32:57Z</time>
      </trkpt>
      <trkpt lat="45.26557" lon="4.81247">
        <ele>138</ele>
        <time>2013-04-23T14:33:04Z</time>
      </trkpt>
      <trkpt lat="45.26531" lon="4.81238">
        <ele>138</ele>
        <time>2013-04-23T14:33:10Z</time>
      </trkpt>
      <trkpt lat="45.26496" lon="4.81232">
        <ele>138</ele>
        <time>2013-04-23T14:33:18Z</time>
      </trkpt>
      <trkpt lat="45.26467" lon="4.81227">
        <ele>138</ele>
        <time>2013-04-23T14:33:24Z</time>
      </trkpt>
      <trkpt lat="45.26462" lon="4.81226">
        <ele>138</ele>
        <time>2013-04-23T14:33:25Z</time>
      </trkpt>
      <trkpt lat="45.2644" lon="4.81223">
        <ele>138</ele>
        <time>2013-04-23T14:33:29Z</time>
      </trkpt>
      <trkpt lat="45.26425" lon="4.81222">
        <ele>138</ele>
        <time>2013-04-23T14:33:32Z</time>
      </trkpt>
      <trkpt lat="45.26391" lon="4.81222">
        <ele>138</ele>
        <time>2013-04-23T14:33:39Z</time>
      </trkpt>
      <trkpt lat="45.26357" lon="4.81227">
        <ele>138</ele>
        <time>2013-04-23T14:33:46Z</time>
      </trkpt>
      <trkpt lat="45.26341" lon="4.81228">
        <ele>138</ele>
        <time>2013-04-23T14:33:49Z</time>
      </trkpt>
      <trkpt lat="45.2633" lon="4.81226">
        <ele>138</ele>
        <time>2013-04-23T14:33:51Z</time>
      </trkpt>
      <trkpt lat="45.26293" lon="4.81219">
        <ele>138</ele>
        <time>2013-04-23T14:33:58Z</time>
      </trkpt>
      <trkpt lat="45.26262" lon="4.81214">
        <ele>138</ele>
        <time>2013-04-23T14:34:04Z</time>
      </trkpt>
      <trkpt lat="45.26221" lon="4.8121">
        <ele>138</ele>
        <time>2013-04-23T14:34:12Z</time>
      </trkpt>
      <trkpt lat="45.26211" lon="4.81206">
        <ele>138</ele>
        <time>2013-04-23T14:34:14Z</time>
      </trkpt>
      <trkpt lat="45.26196" lon="4.81199">
        <ele>138</ele>
        <time>2013-04-23T14:34:17Z</time>
      </trkpt>
      <trkpt lat="45.26162" lon="4.81192">
        <ele>138</ele>
        <time>2013-04-23T14:34:23Z</time>
      </trkpt>
      <trkpt lat="45.26134" lon="4.81182">
        <ele>138</ele>
        <time>2013-04-23T14:34:28Z</time>
      </trkpt>
      <trkpt lat="45.26091" lon="4.81171">
        <ele>138</ele>
        <time>2013-04-23T14:34:35Z</time>
      </trkpt>
      <trkpt lat="45.2606" lon="4.81164">
        <ele>138</ele>
        <time>2013-04-23T14:34:41Z</time>
      </trkpt>
      <trkpt lat="45.26034" lon="4.81156">
        <ele>138</ele>
        <time>2013-04-23T14:34:46Z</time>
      </trkpt>
      <trkpt lat="45.26029" lon="4.81153">
        <ele>138</ele>
        <time>2013-04-23T14:34:47Z</time>
      </trkpt>
      <trkpt lat="45.25988" lon="4.81129">
        <ele>138</ele>
        <time>2013-04-23T14:34:55Z</time>
      </trkpt>
      <trkpt lat="45.25953" lon="4.81109">
        <ele>138</ele>
        <time>2013-04-23T14:35:01Z</time>
      </trkpt>
      <trkpt lat="45.25917" lon="4.81091">
        <ele>138</ele>
        <time>2013-04-23T14:35:08Z</time>
      </trkpt>
      <trkpt lat="45.25908" lon="4.81085">
        <ele>138</ele>
        <time>2013-04-23T14:35:12Z</time>
      </trkpt>
      <trkpt lat="45.25908" lon="4.81085">
        <ele>138</ele>
        <time>2013-04-23T14:35:20Z</time>
      </trkpt>
      <trkpt lat="45.25908" lon="4.81085">
        <ele>138</ele>
        <time>2013-04-23T14:35:35Z</time>
      </trkpt>
      <trkpt lat="45.25908" lon="4.81085">
        <ele>138</ele>
        <time>2013-04-23T14:35:47Z</time>
      </trkpt>
      <trkpt lat="45.25901" lon="4.81082">
        <ele>138</ele>
        <time>2013-04-23T14:35:51Z</time>
      </trkpt>
      <trkpt lat="45.25898" lon="4.8108">
        <ele>138</ele>
        <time>2013-04-23T14:35:52Z</time>
      </trkpt>
      <trkpt lat="45.25877" lon="4.81073">
        <ele>138</ele>
        <time>2013-04-23T14:35:57Z</time>
      </trkpt>
      <trkpt lat="45.25848" lon="4.81066">
        <ele>138</ele>
        <time>2013-04-23T14:36:02Z</time>
      </trkpt>
      <trkpt lat="45.25843" lon="4.81063">
        <ele>138</ele>
        <time>2013-04-23T14:36:03Z</time>
      </trkpt>
      <trkpt lat="45.25805" lon="4.81046">
        <ele>138</ele>
        <time>2013-04-23T14:36:10Z</time>
      </trkpt>
      <trkpt lat="45.25766" lon="4.81033">
        <ele>138</ele>
        <time>2013-04-23T14:36:17Z</time>
      </trkpt>
      <trkpt lat="45.25733" lon="4.81014">
        <ele>138</ele>
        <time>2013-04-23T14:36:23Z</time>
      </trkpt>
      <trkpt lat="45.25692" lon="4.80988">
        <ele>138</ele>
        <time>2013-04-23T14:36:31Z</time>
      </trkpt>
      <trkpt lat="45.25657" lon="4.80971">
        <ele>138</ele>
        <time>2013-04-23T14:36:38Z</time>
      </trkpt>
      <trkpt lat="45.25637" lon="4.80965">
        <ele>138</ele>
        <time>2013-04-23T14:36:42Z</time>
      </trkpt>
      <trkpt lat="45.25621" lon="4.80958">
        <ele>138</ele>
        <time>2013-04-23T14:36:45Z</time>
      </trkpt>
      <trkpt lat="45.2561" lon="4.80955">
        <ele>138</ele>
        <time>2013-04-23T14:36:47Z</time>
      </trkpt>
      <trkpt lat="45.25588" lon="4.80946">
        <ele>138</ele>
        <time>2013-04-23T14:36:51Z</time>
      </trkpt>
      <trkpt lat="45.25551" lon="4.80934">
        <ele>138</ele>
        <time>2013-04-23T14:36:58Z</time>
      </trkpt>
      <trkpt lat="45.25526" lon="4.80924">
        <ele>138</ele>
        <time>2013-04-23T14:37:04Z</time>
      </trkpt>
      <trkpt lat="45.25504" lon="4.80913">
        <ele>138</ele>
        <time>2013-04-23T14:37:10Z</time>
      </trkpt>
      <trkpt lat="45.25478" lon="4.80908">
        <ele>138</ele>
        <time>2013-04-23T14:37:17Z</time>
      </trkpt>
      <trkpt lat="45.25444" lon="4.80905">
        <ele>138</ele>
        <time>2013-04-23T14:37:25Z</time>
      </trkpt>
      <trkpt lat="45.25421" lon="4.80903">
        <ele>138</ele>
        <time>2013-04-23T14:37:31Z</time>
      </trkpt>
      <trkpt lat="45.2541" lon="4.80903">
        <ele>138</ele>
        <time>2013-04-23T14:37:33Z</time>
      </trkpt>
      <trkpt lat="45.25399" lon="4.809">
        <ele>138</ele>
        <time>2013-04-23T14:37:35Z</time>
      </trkpt>
      <trkpt lat="45.25381" lon="4.80896">
        <ele>138</ele>
        <time>2013-04-23T14:37:38Z</time>
      </trkpt>
      <trkpt lat="45.2537" lon="4.80898">
        <ele>138</ele>
        <time>2013-04-23T14:37:40Z</time>
      </trkpt>
      <trkpt lat="45.2536" lon="4.80913">
        <ele>138</ele>
        <time>2013-04-23T14:37:43Z</time>
      </trkpt>
      <trkpt lat="45.25352" lon="4.80929">
        <ele>138</ele>
        <time>2013-04-23T14:37:46Z</time>
      </trkpt>
      <trkpt lat="45.25342" lon="4.80939">
        <ele>138</ele>
        <time>2013-04-23T14:37:49Z</time>
      </trkpt>
      <trkpt lat="45.25338" lon="4.80941">
        <ele>138</ele>
        <time>2013-04-23T14:37:50Z</time>
      </trkpt>
      <trkpt lat="45.25317" lon="4.80952">
        <ele>138</ele>
        <time>2013-04-23T14:37:55Z</time>
      </trkpt>
      <trkpt lat="45.25298" lon="4.80957">
        <ele>138</ele>
        <time>2013-04-23T14:38:00Z</time>
      </trkpt>
      <trkpt lat="45.25272" lon="4.80965">
        <ele>138</ele>
        <time>2013-04-23T14:38:07Z</time>
      </trkpt>
      <trkpt lat="45.25266" lon="4.80966">
        <ele>139</ele>
        <time>2013-04-23T14:38:09Z</time>
      </trkpt>
      <trkpt lat="45.25262" lon="4.80967">
        <ele>139</ele>
        <time>2013-04-23T14:38:10Z</time>
      </trkpt>
      <trkpt lat="45.25259" lon="4.80967">
        <ele>140</ele>
        <time>2013-04-23T14:38:11Z</time>
      </trkpt>
      <trkpt lat="45.25256" lon="4.80967">
        <ele>140</ele>
        <time>2013-04-23T14:38:12Z</time>
      </trkpt>
      <trkpt lat="45.25253" lon="4.80967">
        <ele>140</ele>
        <time>2013-04-23T14:38:13Z</time>
      </trkpt>
      <trkpt lat="45.25253" lon="4.80967">
        <ele>140</ele>
      </trkpt>
      <trkpt lat="45.25229" lon="4.80967">
        <ele>140</ele>
        <time>2013-04-23T14:38:20Z</time>
      </trkpt>
      <trkpt lat="45.25226" lon="4.80967">
        <ele>141</ele>
        <time>2013-04-23T14:38:21Z</time>
      </trkpt>
      <trkpt lat="45.25223" lon="4.80967">
        <ele>141</ele>
        <time>2013-04-23T14:38:22Z</time>
      </trkpt>
      <trkpt lat="45.2522" lon="4.80969">
        <ele>142</ele>
        <time>2013-04-23T14:38:23Z</time>
      </trkpt>
      <trkpt lat="45.25218" lon="4.80971">
        <ele>142</ele>
        <time>2013-04-23T14:38:24Z</time>
      </trkpt>
      <trkpt lat="45.25217" lon="4.80973">
        <ele>142</ele>
        <time>2013-04-23T14:38:25Z</time>
      </trkpt>
      <trkpt lat="45.25213" lon="4.80992">
        <ele>142</ele>
        <time>2013-04-23T14:38:30Z</time>
      </trkpt>
      <trkpt lat="45.25212" lon="4.8101">
        <ele>142</ele>
        <time>2013-04-23T14:38:36Z</time>
      </trkpt>
      <trkpt lat="45.25212" lon="4.8101">
        <ele>142</ele>
        <time>2013-04-23T14:38:45Z</time>
      </trkpt>
      <trkpt lat="45.25212" lon="4.8101">
        <ele>142</ele>
        <time>2013-04-23T14:38:50Z</time>
      </trkpt>
      <trkpt lat="45.25212" lon="4.8101">
        <ele>142</ele>
        <time>2013-04-23T14:38:52Z</time>
      </trkpt>
      <trkpt lat="45.25212" lon="4.8101">
        <ele>142</ele>
        <time>2013-04-23T14:39:08Z</time>
      </trkpt>
      <trkpt lat="45.25212" lon="4.8101">
        <ele>142</ele>
        <time>2013-04-23T14:39:25Z</time>
      </trkpt>
      <trkpt lat="45.25212" lon="4.8101">
        <ele>142</ele>
        <time>2013-04-23T14:39:41Z</time>
      </trkpt>
      <trkpt lat="45.25212" lon="4.8101">
        <ele>142</ele>
        <time>2013-04-23T14:39:49Z</time>
      </trkpt>
      <trkpt lat="45.25212" lon="4.81011">
        <ele>142</ele>
        <time>2013-04-23T14:39:51Z</time>
      </trkpt>
      <trkpt lat="45.25212" lon="4.81031">
        <ele>142</ele>
        <time>2013-04-23T14:40:37Z</time>
      </trkpt>
      <trkpt lat="45.25208" lon="4.81051">
        <ele>142</ele>
        <time>2013-04-23T14:40:41Z</time>
      </trkpt>
      <trkpt lat="45.25205" lon="4.81055">
        <ele>142</ele>
        <time>2013-04-23T14:40:42Z</time>
      </trkpt>
      <trkpt lat="45.2519" lon="4.81071">
        <ele>142</ele>
        <time>2013-04-23T14:40:47Z</time>
      </trkpt>
      <trkpt lat="45.25186" lon="4.81073">
        <ele>142</ele>
        <time>2013-04-23T14:40:48Z</time>
      </trkpt>
      <trkpt lat="45.25164" lon="4.81091">
        <ele>142</ele>
        <time>2013-04-23T14:40:56Z</time>
      </trkpt>
      <trkpt lat="45.25154" lon="4.81102">
        <ele>142</ele>
        <time>2013-04-23T14:40:59Z</time>
      </trkpt>
      <trkpt lat="45.2515" lon="4.81104">
        <ele>142</ele>
        <time>2013-04-23T14:41:01Z</time>
      </trkpt>
      <trkpt lat="45.25149" lon="4.81104">
        <ele>142</ele>
        <time>2013-04-23T14:41:06Z</time>
      </trkpt>
      <trkpt lat="45.2515" lon="4.81104">
        <ele>142</ele>
        <time>2013-04-23T14:41:13Z</time>
      </trkpt>
      <trkpt lat="45.2515" lon="4.81104">
        <ele>142</ele>
        <time>2013-04-23T14:41:27Z</time>
      </trkpt>
      <trkpt lat="45.2515" lon="4.81104">
        <ele>142</ele>
        <time>2013-04-23T14:41:38Z</time>
      </trkpt>
      <trkpt lat="45.2515" lon="4.81104">
        <ele>142</ele>
        <time>2013-04-23T14:41:52Z</time>
      </trkpt>
      <trkpt lat="45.2515" lon="4.81104">
        <ele>142</ele>
        <time>2013-04-23T14:42:05Z</time>
      </trkpt>
      <trkpt lat="45.25143" lon="4.81101">
        <ele>142</ele>
        <time>2013-04-23T14:42:09Z</time>
      </trkpt>
      <trkpt lat="45.25124" lon="4.81083">
        <ele>142</ele>
        <time>2013-04-23T14:42:15Z</time>
      </trkpt>
      <trkpt lat="45.25097" lon="4.81059">
        <ele>142</ele>
        <time>2013-04-23T14:42:23Z</time>
      </trkpt>
      <trkpt lat="45.25065" lon="4.81035">
        <ele>142</ele>
        <time>2013-04-23T14:42:30Z</time>
      </trkpt>
      <trkpt lat="45.25034" lon="4.81012">
        <ele>142</ele>
        <time>2013-04-23T14:42:37Z</time>
      </trkpt>
      <trkpt lat="45.24996" lon="4.80982">
        <ele>142</ele>
        <time>2013-04-23T14:42:46Z</time>
      </trkpt>
      <trkpt lat="45.24984" lon="4.80972">
        <ele>142</ele>
        <time>2013-04-23T14:42:49Z</time>
      </trkpt>
      <trkpt lat="45.2497" lon="4.80959">
        <ele>142</ele>
        <time>2013-04-23T14:42:53Z</time>
      </trkpt>
      <trkpt lat="45.2496" lon="4.80949">
        <ele>142</ele>
        <time>2013-04-23T14:42:56Z</time>
      </trkpt>
      <trkpt lat="45.24943" lon="4.80938">
        <ele>142</ele>
        <time>2013-04-23T14:43:00Z</time>
      </trkpt>
      <trkpt lat="45.24909" lon="4.80916">
        <ele>142</ele>
        <time>2013-04-23T14:43:07Z</time>
      </trkpt>
      <trkpt lat="45.24878" lon="4.80896">
        <ele>142</ele>
        <time>2013-04-23T14:43:13Z</time>
      </trkpt>
      <trkpt lat="45.24824" lon="4.80858">
        <ele>142</ele>
        <time>2013-04-23T14:43:23Z</time>
      </trkpt>
      <trkpt lat="45.24782" lon="4.80827">
        <ele>142</ele>
        <time>2013-04-23T14:43:31Z</time>
      </trkpt>
      <trkpt lat="45.24733" lon="4.8079">
        <ele>142</ele>
        <time>2013-04-23T14:43:40Z</time>
      </trkpt>
      <trkpt lat="45.24685" lon="4.80754">
        <ele>142</ele>
        <time>2013-04-23T14:43:49Z</time>
      </trkpt>
      <trkpt lat="45.2468" lon="4.80749">
        <ele>142</ele>
        <time>2013-04-23T14:43:50Z</time>
      </trkpt>
      <trkpt lat="45.24635" lon="4.80716">
        <ele>142</ele>
        <time>2013-04-23T14:43:58Z</time>
      </trkpt>
      <trkpt lat="45.24607" lon="4.80697">
        <ele>143</ele>
        <time>2013-04-23T14:44:03Z</time>
      </trkpt>
      <trkpt lat="45.24602" lon="4.80693">
        <ele>143</ele>
        <time>2013-04-23T14:44:04Z</time>
      </trkpt>
      <trkpt lat="45.24596" lon="4.80689">
        <ele>144</ele>
        <time>2013-04-23T14:44:05Z</time>
      </trkpt>
      <trkpt lat="45.24591" lon="4.80685">
        <ele>144</ele>
        <time>2013-04-23T14:44:06Z</time>
      </trkpt>
      <trkpt lat="45.24585" lon="4.80681">
        <ele>144</ele>
        <time>2013-04-23T14:44:07Z</time>
      </trkpt>
      <trkpt lat="45.24558" lon="4.80663">
        <ele>144</ele>
        <time>2013-04-23T14:44:12Z</time>
      </trkpt>
      <trkpt lat="45.24524" lon="4.80651">
        <ele>144</ele>
        <time>2013-04-23T14:44:18Z</time>
      </trkpt>
      <trkpt lat="45.24491" lon="4.80641">
        <ele>144</ele>
        <time>2013-04-23T14:44:25Z</time>
      </trkpt>
      <trkpt lat="45.24456" lon="4.80631">
        <ele>144</ele>
        <time>2013-04-23T14:44:34Z</time>
      </trkpt>
      <trkpt lat="45.24461" lon="4.80516">
        <ele>144</ele>
        <time>2013-04-23T14:45:22Z</time>
      </trkpt>
      <trkpt lat="45.24466" lon="4.80455">
        <ele>144</ele>
        <time>2013-04-23T14:45:29Z</time>
      </trkpt>
      <trkpt lat="45.24468" lon="4.80436">
        <ele>144</ele>
        <time>2013-04-23T14:45:31Z</time>
      </trkpt>
      <trkpt lat="45.24469" lon="4.80426">
        <ele>144</ele>
        <time>2013-04-23T14:45:32Z</time>
      </trkpt>
      <trkpt lat="45.2447" lon="4.80417">
        <ele>143</ele>
        <time>2013-04-23T14:45:33Z</time>
      </trkpt>
      <trkpt lat="45.24471" lon="4.80407">
        <ele>143</ele>
        <time>2013-04-23T14:45:34Z</time>
      </trkpt>
      <trkpt lat="45.24471" lon="4.80397">
        <ele>142</ele>
        <time>2013-04-23T14:45:35Z</time>
      </trkpt>
      <trkpt lat="45.24473" lon="4.80355">
        <ele>142</ele>
        <time>2013-04-23T14:45:39Z</time>
      </trkpt>
      <trkpt lat="45.24474" lon="4.80345">
        <ele>142</ele>
        <time>2013-04-23T14:45:40Z</time>
      </trkpt>
      <trkpt lat="45.24475" lon="4.80334">
        <ele>141</ele>
        <time>2013-04-23T14:45:41Z</time>
      </trkpt>
      <trkpt lat="45.24476" lon="4.80324">
        <ele>141</ele>
        <time>2013-04-23T14:45:42Z</time>
      </trkpt>
      <trkpt lat="45.24475" lon="4.80317">
        <ele>140</ele>
        <time>2013-04-23T14:45:43Z</time>
      </trkpt>
      <trkpt lat="45.24381" lon="4.80303">
        <ele>139</ele>
        <time>2013-04-23T14:46:06Z</time>
      </trkpt>
      <trkpt lat="45.24375" lon="4.80304">
        <ele>139</ele>
        <time>2013-04-23T14:46:07Z</time>
      </trkpt>
      <trkpt lat="45.24371" lon="4.80305">
        <ele>138</ele>
        <time>2013-04-23T14:46:08Z</time>
      </trkpt>
      <trkpt lat="45.24361" lon="4.80306">
        <ele>138</ele>
        <time>2013-04-23T14:46:10Z</time>
      </trkpt>
      <trkpt lat="45.24334" lon="4.8031">
        <ele>138</ele>
        <time>2013-04-23T14:46:16Z</time>
      </trkpt>
      <trkpt lat="45.24318" lon="4.80306">
        <ele>138</ele>
        <time>2013-04-23T14:49:13Z</time>
      </trkpt>
      <trkpt lat="45.24309" lon="4.80304">
        <ele>138</ele>
        <time>2013-04-23T14:49:17Z</time>
      </trkpt>
      <trkpt lat="45.24288" lon="4.80287">
        <ele>138</ele>
        <time>2013-04-23T14:49:24Z</time>
      </trkpt>
      <trkpt lat="45.24271" lon="4.8028">
        <ele>138</ele>
        <time>2013-04-23T14:49:29Z</time>
      </trkpt>
      <trkpt lat="45.2425" lon="4.8027">
        <ele>138</ele>
        <time>2013-04-23T14:49:36Z</time>
      </trkpt>
      <trkpt lat="45.24229" lon="4.80264">
        <ele>138</ele>
        <time>2013-04-23T14:49:43Z</time>
      </trkpt>
      <trkpt lat="45.24226" lon="4.80263">
        <ele>137</ele>
        <time>2013-04-23T14:49:44Z</time>
      </trkpt>
      <trkpt lat="45.24223" lon="4.80262">
        <ele>137</ele>
        <time>2013-04-23T14:49:45Z</time>
      </trkpt>
      <trkpt lat="45.24221" lon="4.80261">
        <ele>137</ele>
        <time>2013-04-23T14:49:46Z</time>
      </trkpt>
      <trkpt lat="45.2422" lon="4.80261">
        <ele>136</ele>
        <time>2013-04-23T14:49:47Z</time>
      </trkpt>
      <trkpt lat="45.24219" lon="4.80261">
        <ele>136</ele>
        <time>2013-04-23T14:49:48Z</time>
      </trkpt>
      <trkpt lat="45.24219" lon="4.80261">
        <ele>136</ele>
        <time>2013-04-23T14:50:00Z</time>
      </trkpt>
      <trkpt lat="45.24219" lon="4.80261">
        <ele>136</ele>
        <time>2013-04-23T14:50:15Z</time>
      </trkpt>
      <trkpt lat="45.24217" lon="4.80262">
        <ele>136</ele>
        <time>2013-04-23T14:50:22Z</time>
      </trkpt>
      <trkpt lat="45.24206" lon="4.80265">
        <ele>136</ele>
        <time>2013-04-23T14:50:27Z</time>
      </trkpt>
      <trkpt lat="45.24184" lon="4.80269">
        <ele>136</ele>
        <time>2013-04-23T14:50:33Z</time>
      </trkpt>
      <trkpt lat="45.24152" lon="4.80281">
        <ele>136</ele>
        <time>2013-04-23T14:50:42Z</time>
      </trkpt>
      <trkpt lat="45.24131" lon="4.80286">
        <ele>136</ele>
        <time>2013-04-23T14:50:48Z</time>
      </trkpt>
    </trkseg>
  </trk>
</gpx>